Wetterdaten: Freitag, 03.05.2019
Datum Zeit Temp. Aussen Temp. o. S. +5cm Feuchte Auss Luftdruck Regen Sonnenschein Regendauer Solar Windben Empfang
03.05.2019 00:00 7,9 C 6,7 C 6,7 C 93 % 1008,6 hPa 0,0 l/m 0 min 0 min 0 W/m 6,4 km/h (2 Bft) 95,65 %
03.05.2019 00:02 7,9 C 6,7 C 6,1 C 93 % 1008,5 hPa 0,0 l/m 0 min 0 min 0 W/m 3,2 km/h (1 Bft) 94,74 %
03.05.2019 00:04 7,8 C 6,1 C 6,1 C 93 % 1008,6 hPa 0,0 l/m 0 min 0 min 0 W/m 0,0 km/h (0 Bft) 97,87 %
03.05.2019 00:07 7,8 C 6,1 C 6,1 C 93 % 1008,5 hPa 0,0 l/m 0 min 0 min 0 W/m 3,2 km/h (1 Bft) 97,87 %
03.05.2019 00:08 7,8 C 6,1 C 6,1 C 93 % 1008,5 hPa 0,0 l/m 0 min 0 min 0 W/m 3,2 km/h (1 Bft) 96,81 %
03.05.2019 00:10 7,8 C 6,1 C 6,1 C 93 % 1008,6 hPa 0,0 l/m 0 min 0 min 0 W/m 3,2 km/h (1 Bft) 97,87 %
03.05.2019 00:12 7,7 C 6,1 C 6,1 C 93 % 1008,6 hPa 0,0 l/m 0 min 0 min 0 W/m 0,0 km/h (0 Bft) 95,65 %
03.05.2019 00:14 7,7 C 6,1 C 6,1 C 93 % 1008,6 hPa 0,0 l/m 0 min 0 min 0 W/m 0,0 km/h (0 Bft) 95,74 %
03.05.2019 00:16 7,7 C 6,1 C 6,1 C 94 % 1008,6 hPa 0,0 l/m 0 min 0 min 0 W/m 0,0 km/h (0 Bft) 93,62 %
03.05.2019 00:18 7,7 C 6,1 C 6,1 C 94 % 1008,6 hPa 0,0 l/m 0 min 0 min 0 W/m 6,4 km/h (2 Bft) 97,87 %
03.05.2019 00:20 7,7 C 6,1 C 6,1 C 94 % 1008,6 hPa 0,0 l/m 0 min 0 min 0 W/m 12,9 km/h (3 Bft) 95,74 %
03.05.2019 00:22 7,7 C 6,7 C 6,7 C 94 % 1008,7 hPa 0,0 l/m 0 min 0 min 0 W/m 6,4 km/h (2 Bft) 97,87 %
03.05.2019 00:24 7,7 C 6,7 C 6,7 C 94 % 1008,6 hPa 0,0 l/m 0 min 0 min 0 W/m 3,2 km/h (1 Bft) 93,48 %
03.05.2019 00:26 7,7 C 6,7 C 6,7 C 94 % 1008,7 hPa 0,0 l/m 0 min 0 min 0 W/m 6,4 km/h (2 Bft) 95,74 %
03.05.2019 00:28 7,7 C 6,7 C 6,7 C 94 % 1008,7 hPa 0,0 l/m 0 min 0 min 0 W/m 3,2 km/h (1 Bft) 93,62 %
03.05.2019 00:30 7,7 C 6,7 C 6,7 C 94 % 1008,7 hPa 0,0 l/m 0 min 0 min 0 W/m 3,2 km/h (1 Bft) 91,49 %
03.05.2019 00:32 7,7 C 6,7 C 6,7 C 94 % 1008,7 hPa 0,0 l/m 0 min 0 min 0 W/m 6,4 km/h (2 Bft) 95,74 %
03.05.2019 00:34 7,8 C 7,2 C 6,7 C 94 % 1008,7 hPa 0,0 l/m 0 min 0 min 0 W/m 0,0 km/h (0 Bft) 95,74 %
03.05.2019 00:36 7,8 C 7,2 C 7,2 C 94 % 1008,6 hPa 0,0 l/m 0 min 0 min 0 W/m 9,7 km/h (2 Bft) 95,65 %
03.05.2019 00:38 7,8 C 7,2 C 7,2 C 94 % 1008,7 hPa 0,0 l/m 0 min 0 min 0 W/m 0,0 km/h (0 Bft) 91,49 %
03.05.2019 00:40 7,9 C 7,2 C 7,2 C 94 % 1008,7 hPa 0,0 l/m 0 min 0 min 0 W/m 0,0 km/h (0 Bft) 93,62 %
03.05.2019 00:42 7,9 C 7,2 C 7,2 C 94 % 1008,7 hPa 0,0 l/m 0 min 0 min 0 W/m 0,0 km/h (0 Bft) 91,49 %
03.05.2019 00:44 7,9 C 7,2 C 7,2 C 94 % 1008,7 hPa 0,0 l/m 0 min 0 min 0 W/m 6,4 km/h (2 Bft) 95,74 %
03.05.2019 00:46 7,9 C 7,2 C 7,2 C 94 % 1008,7 hPa 0,0 l/m 0 min 0 min 0 W/m 6,4 km/h (2 Bft) 95,74 %
03.05.2019 00:48 8,0 C 7,2 C 7,2 C 94 % 1008,8 hPa 0,0 l/m 0 min 0 min 0 W/m 6,4 km/h (2 Bft) 95,65 %
03.05.2019 00:50 8,0 C 7,2 C 7,2 C 94 % 1008,8 hPa 0,0 l/m 0 min 0 min 0 W/m 9,7 km/h (2 Bft) 95,74 %
03.05.2019 00:52 8,0 C 7,2 C 7,2 C 95 % 1008,9 hPa 0,0 l/m 0 min 0 min 0 W/m 6,4 km/h (2 Bft) 95,74 %
03.05.2019 00:54 8,1 C 7,2 C 7,2 C 95 % 1008,9 hPa 0,0 l/m 0 min 0 min 0 W/m 0,0 km/h (0 Bft) 95,74 %
03.05.2019 00:56 8,1 C 7,2 C 7,2 C 95 % 1008,8 hPa 0,0 l/m 0 min 0 min 0 W/m 0,0 km/h (0 Bft) 95,74 %
03.05.2019 00:58 8,1 C 7,2 C 7,2 C 95 % 1008,9 hPa 0,0 l/m 0 min 0 min 0 W/m 0,0 km/h (0 Bft) 95,65 %
03.05.2019 01:00 8,2 C 7,2 C 7,2 C 95 % 1008,9 hPa 0,0 l/m 0 min 0 min 0 W/m 0,0 km/h (0 Bft) 95,74 %
03.05.2019 01:02 8,2 C 7,2 C 7,2 C 95 % 1008,9 hPa 0,0 l/m 0 min 0 min 0 W/m 0,0 km/h (0 Bft) 97,87 %
03.05.2019 01:04 8,2 C 7,2 C 7,2 C 95 % 1008,9 hPa 0,0 l/m 0 min 0 min 0 W/m 12,9 km/h (3 Bft) 97,87 %
03.05.2019 01:06 8,2 C 7,2 C 7,2 C 95 % 1008,9 hPa 0,0 l/m 0 min 0 min 0 W/m 6,4 km/h (2 Bft) 96,61 %
03.05.2019 01:08 8,2 C 7,2 C 7,2 C 95 % 1008,9 hPa 0,0 l/m 0 min 0 min 0 W/m 12,9 km/h (3 Bft) 97,14 %
03.05.2019 01:10 8,2 C 7,2 C 7,2 C 95 % 1008,9 hPa 0,0 l/m 0 min 0 min 0 W/m 6,4 km/h (2 Bft) 95,65 %
03.05.2019 01:12 8,2 C 7,2 C 7,2 C 95 % 1008,9 hPa 0,0 l/m 0 min 0 min 0 W/m 6,4 km/h (2 Bft) 97,87 %
03.05.2019 01:14 8,2 C 7,2 C 7,2 C 95 % 1008,9 hPa 0,0 l/m 0 min 0 min 0 W/m 6,4 km/h (2 Bft) 97,87 %
03.05.2019 01:16 8,2 C 7,2 C 7,2 C 95 % 1008,9 hPa 0,0 l/m 0 min 0 min 0 W/m 9,7 km/h (2 Bft) 97,87 %
03.05.2019 01:18 8,3 C 7,2 C 7,2 C 95 % 1009,0 hPa 0,0 l/m 0 min 0 min 0 W/m 9,7 km/h (2 Bft) 97,87 %
03.05.2019 01:20 8,3 C 7,2 C 7,2 C 95 % 1009,0 hPa 0,0 l/m 0 min 0 min 0 W/m 9,7 km/h (2 Bft) 100,00 %
03.05.2019 01:22 8,3 C 7,2 C 7,2 C 95 % 1009,0 hPa 0,0 l/m 0 min 0 min 0 W/m 12,9 km/h (3 Bft) 100,00 %
03.05.2019 01:24 8,3 C 7,2 C 7,2 C 95 % 1009,0 hPa 0,0 l/m 0 min 0 min 0 W/m 16,1 km/h (3 Bft) 100,00 %
03.05.2019 01:26 8,3 C 7,2 C 7,2 C 95 % 1009,0 hPa 0,0 l/m 0 min 0 min 0 W/m 6,4 km/h (2 Bft) 97,87 %
03.05.2019 01:28 8,3 C 7,2 C 7,2 C 95 % 1009,1 hPa 0,0 l/m 0 min 0 min 0 W/m 6,4 km/h (2 Bft) 100,00 %
03.05.2019 01:30 8,3 C 7,2 C 7,2 C 95 % 1009,0 hPa 0,0 l/m 0 min 0 min 0 W/m 3,2 km/h (1 Bft) 100,00 %
03.05.2019 01:32 8,3 C 7,2 C 7,2 C 95 % 1009,0 hPa 0,0 l/m 0 min 0 min 0 W/m 6,4 km/h (2 Bft) 100,00 %
03.05.2019 01:34 8,3 C 7,2 C 7,2 C 95 % 1009,1 hPa 0,0 l/m 0 min 0 min 0 W/m 9,7 km/h (2 Bft) 100,00 %
03.05.2019 01:36 8,4 C 7,2 C 7,2 C 95 % 1009,1 hPa 0,0 l/m 0 min 0 min 0 W/m 6,4 km/h (2 Bft) 97,87 %
03.05.2019 01:38 8,4 C 7,2 C 7,2 C 95 % 1009,1 hPa 0,0 l/m 0 min 0 min 0 W/m 6,4 km/h (2 Bft) 100,00 %
03.05.2019 01:40 8,4 C 7,2 C 7,2 C 95 % 1009,1 hPa 0,0 l/m 0 min 0 min 0 W/m 16,1 km/h (3 Bft) 100,00 %
03.05.2019 01:42 8,4 C 7,2 C 7,2 C 95 % 1009,1 hPa 0,0 l/m 0 min 0 min 0 W/m 6,4 km/h (2 Bft) 100,00 %
03.05.2019 01:44 8,4 C 7,2 C 7,2 C 95 % 1009,1 hPa 0,0 l/m 0 min 0 min 0 W/m 9,7 km/h (2 Bft) 97,87 %
03.05.2019 01:46 8,4 C 7,2 C 7,2 C 95 % 1009,1 hPa 0,0 l/m 0 min 0 min 0 W/m 3,2 km/h (1 Bft) 100,00 %
03.05.2019 01:48 8,4 C 7,2 C 7,2 C 95 % 1009,1 hPa 0,0 l/m 0 min 0 min 0 W/m 9,7 km/h (2 Bft) 100,00 %
03.05.2019 01:50 8,4 C 7,2 C 7,2 C 95 % 1009,2 hPa 0,0 l/m 0 min 0 min 0 W/m 6,4 km/h (2 Bft) 100,00 %
03.05.2019 01:52 8,4 C 7,2 C 7,2 C 95 % 1009,1 hPa 0,0 l/m 0 min 0 min 0 W/m 12,9 km/h (3 Bft) 97,87 %
03.05.2019 01:54 8,4 C 7,2 C 7,2 C 95 % 1009,2 hPa 0,0 l/m 0 min 0 min 0 W/m 9,7 km/h (2 Bft) 100,00 %
03.05.2019 01:56 8,4 C 7,2 C 7,2 C 95 % 1009,1 hPa 0,0 l/m 0 min 0 min 0 W/m 6,4 km/h (2 Bft) 100,00 %
03.05.2019 01:58 8,4 C 7,2 C 7,2 C 95 % 1009,2 hPa 0,0 l/m 0 min 0 min 0 W/m 9,7 km/h (2 Bft) 100,00 %
03.05.2019 02:00 8,4 C 7,2 C 7,2 C 95 % 1009,1 hPa 0,0 l/m 0 min 0 min 0 W/m 9,7 km/h (2 Bft) 100,00 %
03.05.2019 02:02 8,4 C 7,2 C 7,2 C 95 % 1009,1 hPa 0,0 l/m 0 min 0 min 0 W/m 3,2 km/h (1 Bft) 97,87 %
03.05.2019 02:04 8,4 C 7,2 C 7,2 C 95 % 1009,2 hPa 0,0 l/m 0 min 0 min 0 W/m 9,7 km/h (2 Bft) 100,00 %
03.05.2019 02:06 8,4 C 7,2 C 7,2 C 95 % 1009,1 hPa 0,0 l/m 0 min 0 min 0 W/m 12,9 km/h (3 Bft) 100,00 %
03.05.2019 02:08 8,4 C 7,2 C 7,2 C 95 % 1009,1 hPa 0,0 l/m 0 min 0 min 0 W/m 12,9 km/h (3 Bft) 100,00 %
03.05.2019 02:10 8,4 C 7,2 C 7,2 C 95 % 1009,1 hPa 0,0 l/m 0 min 0 min 0 W/m 12,9 km/h (3 Bft) 100,00 %
03.05.2019 02:12 8,4 C 7,2 C 7,2 C 95 % 1009,2 hPa 0,0 l/m 0 min 0 min 0 W/m 6,4 km/h (2 Bft) 100,00 %
03.05.2019 02:14 8,4 C 7,2 C 7,2 C 95 % 1009,1 hPa 0,0 l/m 0 min 0 min 0 W/m 9,7 km/h (2 Bft) 100,00 %
03.05.2019 02:16 8,3 C 7,2 C 7,2 C 95 % 1009,1 hPa 0,0 l/m 0 min 0 min 0 W/m 6,4 km/h (2 Bft) 100,00 %
03.05.2019 02:18 8,3 C 7,2 C 7,2 C 95 % 1009,1 hPa 0,0 l/m 0 min 0 min 0 W/m 9,7 km/h (2 Bft) 100,00 %
03.05.2019 02:20 8,3 C 7,2 C 7,2 C 95 % 1009,1 hPa 0,0 l/m 0 min 0 min 0 W/m 6,4 km/h (2 Bft) 100,00 %
03.05.2019 02:22 8,3 C 7,2 C 7,2 C 95 % 1009,1 hPa 0,0 l/m 0 min 0 min 0 W/m 3,2 km/h (1 Bft) 97,83 %
03.05.2019 02:24 8,3 C 7,2 C 7,2 C 95 % 1009,2 hPa 0,0 l/m 0 min 0 min 0 W/m 9,7 km/h (2 Bft) 100,00 %
03.05.2019 02:26 8,3 C 7,2 C 7,2 C 95 % 1009,1 hPa 0,0 l/m 0 min 0 min 0 W/m 0,0 km/h (0 Bft) 97,87 %
03.05.2019 02:28 8,3 C 7,2 C 7,2 C 95 % 1009,2 hPa 0,0 l/m 0 min 0 min 0 W/m 0,0 km/h (0 Bft) 100,00 %
03.05.2019 02:30 8,3 C 7,2 C 7,2 C 95 % 1009,2 hPa 0,0 l/m 0 min 0 min 0 W/m 6,4 km/h (2 Bft) 100,00 %
03.05.2019 02:32 8,3 C 7,2 C 7,2 C 95 % 1009,1 hPa 0,0 l/m 0 min 0 min 0 W/m 9,7 km/h (2 Bft) 95,65 %
03.05.2019 02:34 8,2 C 7,2 C 7,2 C 95 % 1009,1 hPa 0,0 l/m 0 min 0 min 0 W/m 6,4 km/h (2 Bft) 97,87 %
03.05.2019 02:36 8,2 C 7,2 C 7,2 C 95 % 1009,1 hPa 0,0 l/m 0 min 0 min 0 W/m 9,7 km/h (2 Bft) 97,87 %
03.05.2019 02:38 8,2 C 7,2 C 7,2 C 95 % 1009,1 hPa 0,0 l/m 0 min 0 min 0 W/m 9,7 km/h (2 Bft) 100,00 %
03.05.2019 02:40 8,2 C 7,2 C 7,2 C 95 % 1009,1 hPa 0,0 l/m 0 min 0 min 0 W/m 9,7 km/h (2 Bft) 100,00 %
03.05.2019 02:42 8,2 C 7,2 C 7,2 C 95 % 1009,2 hPa 0,0 l/m 0 min 0 min 0 W/m 6,4 km/h (2 Bft) 97,87 %
03.05.2019 02:44 8,2 C 7,2 C 7,2 C 95 % 1009,2 hPa 0,0 l/m 0 min 0 min 0 W/m 9,7 km/h (2 Bft) 95,65 %
03.05.2019 02:46 8,2 C 7,2 C 7,2 C 95 % 1009,2 hPa 0,0 l/m 0 min 0 min 0 W/m 9,7 km/h (2 Bft) 100,00 %
03.05.2019 02:48 8,2 C 7,2 C 7,2 C 95 % 1009,2 hPa 0,0 l/m 0 min 2 min 0 W/m 9,7 km/h (2 Bft) 100,00 %
03.05.2019 02:50 8,2 C 7,2 C 7,2 C 95 % 1009,1 hPa 0,0 l/m 0 min 2 min 0 W/m 6,4 km/h (2 Bft) 97,87 %
03.05.2019 02:52 8,2 C 7,2 C 7,2 C 95 % 1009,2 hPa 0,0 l/m 0 min 2 min 0 W/m 6,4 km/h (2 Bft) 97,87 %
03.05.2019 02:54 8,2 C 7,2 C 7,2 C 95 % 1009,1 hPa 0,0 l/m 0 min 0 min 0 W/m 6,4 km/h (2 Bft) 97,87 %
03.05.2019 02:56 8,2 C 7,2 C 7,2 C 95 % 1009,2 hPa 0,0 l/m 0 min 0 min 0 W/m 0,0 km/h (0 Bft) 97,83 %
03.05.2019 02:58 8,2 C 7,2 C 6,7 C 95 % 1009,1 hPa 0,0 l/m 0 min 0 min 0 W/m 0,0 km/h (0 Bft) 95,74 %
03.05.2019 03:00 8,2 C 7,2 C 6,7 C 95 % 1009,2 hPa 0,0 l/m 0 min 0 min 0 W/m 6,4 km/h (2 Bft) 95,74 %
03.05.2019 03:02 8,2 C 7,2 C 6,7 C 95 % 1009,1 hPa 0,0 l/m 0 min 0 min 0 W/m 6,4 km/h (2 Bft) 95,74 %
03.05.2019 03:04 8,2 C 7,2 C 6,7 C 95 % 1009,1 hPa 0,0 l/m 0 min 0 min 0 W/m 3,2 km/h (1 Bft) 95,74 %
03.05.2019 03:06 8,2 C 7,2 C 6,7 C 95 % 1009,1 hPa 0,0 l/m 0 min 0 min 0 W/m 6,4 km/h (2 Bft) 97,87 %
03.05.2019 03:08 8,2 C 7,2 C 6,7 C 95 % 1009,1 hPa 0,0 l/m 0 min 0 min 0 W/m 0,0 km/h (0 Bft) 93,48 %
03.05.2019 03:10 8,2 C 7,2 C 6,7 C 95 % 1009,1 hPa 0,0 l/m 0 min 0 min 0 W/m 6,4 km/h (2 Bft) 93,62 %
03.05.2019 03:12 8,2 C 7,2 C 6,7 C 95 % 1009,1 hPa 0,0 l/m 0 min 0 min 0 W/m 6,4 km/h (2 Bft) 93,62 %
03.05.2019 03:14 8,2 C 6,7 C 6,7 C 95 % 1009,1 hPa 0,0 l/m 0 min 0 min 0 W/m 6,4 km/h (2 Bft) 93,62 %
03.05.2019 03:16 8,2 C 7,2 C 6,7 C 95 % 1009,2 hPa 0,0 l/m 0 min 0 min 0 W/m 3,2 km/h (1 Bft) 89,36 %
03.05.2019 03:18 8,2 C 7,2 C 6,7 C 95 % 1009,2 hPa 0,0 l/m 0 min 0 min 0 W/m 6,4 km/h (2 Bft) 93,62 %
03.05.2019 03:20 8,1 C 6,7 C 6,7 C 95 % 1009,2 hPa 0,0 l/m 0 min 0 min 0 W/m 3,2 km/h (1 Bft) 93,48 %
03.05.2019 03:22 8,1 C 6,7 C 6,7 C 95 % 1009,1 hPa 0,0 l/m 0 min 0 min 0 W/m 0,0 km/h (0 Bft) 93,62 %
03.05.2019 03:24 8,1 C 6,7 C 6,7 C 95 % 1009,1 hPa 0,0 l/m 0 min 0 min 0 W/m 0,0 km/h (0 Bft) 93,62 %
03.05.2019 03:26 8,1 C 6,7 C 6,7 C 95 % 1009,1 hPa 0,0 l/m 0 min 0 min 0 W/m 0,0 km/h (0 Bft) 93,62 %
03.05.2019 03:28 8,1 C 6,7 C 6,7 C 95 % 1009,2 hPa 0,0 l/m 0 min 0 min 0 W/m 6,4 km/h (2 Bft) 93,62 %
03.05.2019 03:30 8,1 C 6,7 C 6,7 C 95 % 1009,1 hPa 0,0 l/m 0 min 0 min 0 W/m 3,2 km/h (1 Bft) 91,49 %
03.05.2019 03:32 8,1 C 6,7 C 6,7 C 95 % 1009,2 hPa 0,0 l/m 0 min 0 min 0 W/m 0,0 km/h (0 Bft) 91,30 %
03.05.2019 03:34 8,1 C 6,7 C 6,7 C 95 % 1009,2 hPa 0,0 l/m 0 min 0 min 0 W/m 0,0 km/h (0 Bft) 95,74 %
03.05.2019 03:36 8,1 C 6,7 C 6,7 C 95 % 1009,1 hPa 0,0 l/m 0 min 0 min 0 W/m 0,0 km/h (0 Bft) 93,62 %
03.05.2019 03:38 8,0 C 6,7 C 6,7 C 95 % 1009,1 hPa 0,0 l/m 0 min 0 min 0 W/m 3,2 km/h (1 Bft) 95,74 %
03.05.2019 03:40 8,0 C 6,7 C 6,7 C 95 % 1009,2 hPa 0,0 l/m 0 min 0 min 0 W/m 3,2 km/h (1 Bft) 95,74 %
03.05.2019 03:42 8,0 C 6,7 C 6,7 C 95 % 1009,1 hPa 0,0 l/m 0 min 0 min 0 W/m 3,2 km/h (1 Bft) 95,65 %
03.05.2019 03:44 7,9 C 6,7 C 6,7 C 95 % 1009,1 hPa 0,0 l/m 0 min 0 min 0 W/m 3,2 km/h (1 Bft) 95,74 %
03.05.2019 03:46 7,9 C 6,7 C 6,7 C 95 % 1009,1 hPa 0,0 l/m 0 min 0 min 0 W/m 0,0 km/h (0 Bft) 95,74 %
03.05.2019 03:48 7,9 C 6,7 C 6,7 C 94 % 1009,2 hPa 0,0 l/m 0 min 0 min 0 W/m 3,2 km/h (1 Bft) 97,87 %
03.05.2019 03:50 7,9 C 6,7 C 6,7 C 94 % 1009,2 hPa 0,0 l/m 0 min 0 min 0 W/m 0,0 km/h (0 Bft) 93,62 %
03.05.2019 03:52 7,9 C 6,7 C 6,7 C 95 % 1009,2 hPa 0,0 l/m 0 min 0 min 0 W/m 0,0 km/h (0 Bft) 95,74 %
03.05.2019 03:54 7,9 C 6,7 C 6,7 C 95 % 1009,2 hPa 0,0 l/m 0 min 0 min 0 W/m 3,2 km/h (1 Bft) 97,87 %
03.05.2019 03:56 7,9 C 6,7 C 6,7 C 95 % 1009,2 hPa 0,0 l/m 0 min 0 min 0 W/m 0,0 km/h (0 Bft) 97,83 %
03.05.2019 03:58 7,8 C 6,7 C 6,7 C 95 % 1009,2 hPa 0,0 l/m 0 min 0 min 0 W/m 0,0 km/h (0 Bft) 95,74 %
03.05.2019 04:00 7,8 C 6,7 C 6,7 C 95 % 1009,3 hPa 0,0 l/m 0 min 0 min 0 W/m 3,2 km/h (1 Bft) 97,87 %
03.05.2019 04:02 7,8 C 6,7 C 6,7 C 95 % 1009,2 hPa 0,0 l/m 0 min 0 min 0 W/m 3,2 km/h (1 Bft) 100,00 %
03.05.2019 04:04 7,8 C 7,2 C 6,7 C 95 % 1009,3 hPa 0,0 l/m 0 min 0 min 0 W/m 0,0 km/h (0 Bft) 97,87 %
03.05.2019 04:06 7,8 C 7,2 C 6,7 C 95 % 1009,3 hPa 0,0 l/m 0 min 0 min 0 W/m 6,4 km/h (2 Bft) 97,83 %
03.05.2019 04:08 7,8 C 7,2 C 6,7 C 95 % 1009,3 hPa 0,0 l/m 0 min 0 min 0 W/m 3,2 km/h (1 Bft) 100,00 %
03.05.2019 04:10 7,8 C 7,2 C 6,7 C 95 % 1009,3 hPa 0,0 l/m 0 min 0 min 0 W/m 6,4 km/h (2 Bft) 100,00 %
03.05.2019 04:12 7,8 C 7,2 C 6,7 C 95 % 1009,3 hPa 0,0 l/m 0 min 0 min 0 W/m 3,2 km/h (1 Bft) 100,00 %
03.05.2019 04:14 7,8 C 7,2 C 6,7 C 95 % 1009,3 hPa 0,0 l/m 0 min 0 min 0 W/m 6,4 km/h (2 Bft) 97,87 %
03.05.2019 04:16 7,9 C 7,2 C 6,7 C 95 % 1009,3 hPa 0,0 l/m 0 min 0 min 0 W/m 6,4 km/h (2 Bft) 100,00 %
03.05.2019 04:18 7,9 C 7,2 C 6,7 C 95 % 1009,3 hPa 0,0 l/m 0 min 0 min 0 W/m 6,4 km/h (2 Bft) 97,83 %
03.05.2019 04:20 7,9 C 6,7 C 6,7 C 95 % 1009,3 hPa 0,0 l/m 0 min 0 min 0 W/m 3,2 km/h (1 Bft) 95,74 %
03.05.2019 04:22 7,9 C 6,7 C 6,7 C 95 % 1009,3 hPa 0,0 l/m 0 min 0 min 0 W/m 12,9 km/h (3 Bft) 100,00 %
03.05.2019 04:24 7,9 C 6,7 C 6,7 C 95 % 1009,3 hPa 0,0 l/m 0 min 0 min 0 W/m 12,9 km/h (3 Bft) 100,00 %
03.05.2019 04:26 7,8 C 6,7 C 6,7 C 95 % 1009,4 hPa 0,0 l/m 0 min 0 min 0 W/m 16,1 km/h (3 Bft) 97,87 %
03.05.2019 04:28 7,8 C 6,7 C 6,7 C 95 % 1009,4 hPa 0,0 l/m 0 min 0 min 0 W/m 9,7 km/h (2 Bft) 100,00 %
03.05.2019 04:30 7,8 C 6,7 C 6,7 C 95 % 1009,4 hPa 0,0 l/m 0 min 0 min 0 W/m 6,4 km/h (2 Bft) 100,00 %
03.05.2019 04:32 7,8 C 6,7 C 6,7 C 95 % 1009,4 hPa 0,0 l/m 0 min 0 min 0 W/m 12,9 km/h (3 Bft) 100,00 %
03.05.2019 04:34 7,8 C 6,7 C 6,7 C 95 % 1009,4 hPa 0,0 l/m 0 min 0 min 0 W/m 6,4 km/h (2 Bft) 97,87 %
03.05.2019 04:36 7,8 C 6,7 C 6,7 C 95 % 1009,3 hPa 0,0 l/m 0 min 0 min 0 W/m 6,4 km/h (2 Bft) 97,87 %
03.05.2019 04:38 7,8 C 6,7 C 6,7 C 95 % 1009,4 hPa 0,0 l/m 0 min 0 min 0 W/m 6,4 km/h (2 Bft) 100,00 %
03.05.2019 04:40 7,7 C 6,7 C 6,7 C 95 % 1009,4 hPa 0,0 l/m 0 min 0 min 0 W/m 6,4 km/h (2 Bft) 100,00 %
03.05.2019 04:42 7,7 C 6,7 C 6,1 C 95 % 1009,4 hPa 0,0 l/m 0 min 0 min 0 W/m 3,2 km/h (1 Bft) 97,83 %
03.05.2019 04:44 7,7 C 6,1 C 6,1 C 95 % 1009,4 hPa 0,0 l/m 0 min 0 min 0 W/m 3,2 km/h (1 Bft) 100,00 %
03.05.2019 04:46 7,7 C 6,1 C 6,1 C 95 % 1009,5 hPa 0,0 l/m 0 min 0 min 0 W/m 6,4 km/h (2 Bft) 100,00 %
03.05.2019 04:48 7,6 C 6,1 C 6,1 C 95 % 1009,4 hPa 0,0 l/m 0 min 0 min 0 W/m 12,9 km/h (3 Bft) 100,00 %
03.05.2019 04:50 7,6 C 6,1 C 6,1 C 95 % 1009,4 hPa 0,0 l/m 0 min 0 min 0 W/m 0,0 km/h (0 Bft) 100,00 %
03.05.2019 04:52 7,6 C 6,1 C 6,1 C 95 % 1009,4 hPa 0,0 l/m 0 min 0 min 0 W/m 3,2 km/h (1 Bft) 100,00 %
03.05.2019 04:54 7,5 C 6,1 C 6,1 C 95 % 1009,4 hPa 0,0 l/m 0 min 0 min 0 W/m 0,0 km/h (0 Bft) 100,00 %
03.05.2019 04:56 7,5 C 6,1 C 6,1 C 95 % 1009,4 hPa 0,0 l/m 0 min 0 min 0 W/m 0,0 km/h (0 Bft) 95,74 %
03.05.2019 04:58 7,4 C 6,1 C 6,1 C 95 % 1009,4 hPa 0,0 l/m 0 min 0 min 0 W/m 0,0 km/h (0 Bft) 100,00 %
03.05.2019 05:00 7,4 C 6,1 C 6,1 C 95 % 1009,4 hPa 0,0 l/m 0 min 0 min 0 W/m 6,4 km/h (2 Bft) 100,00 %
03.05.2019 05:02 7,4 C 6,1 C 6,1 C 95 % 1009,4 hPa 0,0 l/m 0 min 0 min 0 W/m 0,0 km/h (0 Bft) 95,74 %
03.05.2019 05:04 7,4 C 6,1 C 6,1 C 95 % 1009,5 hPa 0,0 l/m 0 min 0 min 0 W/m 0,0 km/h (0 Bft) 100,00 %
03.05.2019 05:05 7,4 C 6,1 C 6,1 C 95 % 1009,4 hPa 0,0 l/m 0 min 0 min 0 W/m 6,4 km/h (2 Bft) 100,00 %
03.05.2019 05:10 7,3 C 6,1 C 6,1 C 95 % 1009,4 hPa 0,0 l/m 0 min 0 min 0 W/m 3,2 km/h (1 Bft) 100,00 %
03.05.2019 05:12 7,3 C 6,1 C 6,1 C 95 % 1009,5 hPa 0,0 l/m 0 min 0 min 0 W/m 3,2 km/h (1 Bft) 94,12 %
03.05.2019 05:14 7,3 C 6,1 C 6,1 C 95 % 1009,4 hPa 0,0 l/m 0 min 0 min 0 W/m 0,0 km/h (0 Bft) 71,43 %
03.05.2019 05:16 7,3 C 6,1 C 6,1 C 95 % 1009,5 hPa 0,0 l/m 0 min 0 min 0 W/m 0,0 km/h (0 Bft) 71,43 %
03.05.2019 05:18 7,3 C 6,1 C 6,1 C 95 % 1009,5 hPa 0,0 l/m 0 min 0 min 0 W/m 0,0 km/h (0 Bft) 95,83 %
03.05.2019 05:20 7,2 C 6,1 C 6,1 C 95 % 1009,5 hPa 0,0 l/m 0 min 0 min 0 W/m 0,0 km/h (0 Bft) 97,87 %
03.05.2019 05:22 7,2 C 6,1 C 6,1 C 95 % 1009,6 hPa 0,0 l/m 0 min 0 min 0 W/m 0,0 km/h (0 Bft) 97,87 %
03.05.2019 05:24 7,2 C 6,1 C 6,1 C 95 % 1009,6 hPa 0,0 l/m 0 min 0 min 0 W/m 0,0 km/h (0 Bft) 100,00 %
03.05.2019 05:26 7,2 C 6,1 C 6,1 C 95 % 1009,6 hPa 0,0 l/m 0 min 0 min 0 W/m 0,0 km/h (0 Bft) 100,00 %
03.05.2019 05:28 7,2 C 6,1 C 6,1 C 95 % 1009,6 hPa 0,0 l/m 0 min 0 min 0 W/m 0,0 km/h (0 Bft) 95,92 %
03.05.2019 05:30 7,2 C 6,1 C 6,1 C 95 % 1009,6 hPa 0,0 l/m 0 min 0 min 0 W/m 3,2 km/h (1 Bft) 97,96 %
03.05.2019 05:32 7,2 C 6,1 C 6,1 C 95 % 1009,5 hPa 0,0 l/m 0 min 0 min 0 W/m 3,2 km/h (1 Bft) 97,96 %
03.05.2019 05:34 7,2 C 6,1 C 6,1 C 95 % 1009,5 hPa 0,0 l/m 0 min 0 min 0 W/m 0,0 km/h (0 Bft) 97,87 %
03.05.2019 05:36 7,2 C 6,1 C 6,1 C 95 % 1009,6 hPa 0,0 l/m 0 min 0 min 0 W/m 6,4 km/h (2 Bft) 97,83 %
03.05.2019 05:38 7,2 C 6,1 C 6,1 C 95 % 1009,7 hPa 0,0 l/m 0 min 0 min 0 W/m 3,2 km/h (1 Bft) 97,62 %
03.05.2019 05:40 7,2 C 6,1 C 6,1 C 95 % 1009,6 hPa 0,0 l/m 0 min 0 min 0 W/m 3,2 km/h (1 Bft) 97,96 %
03.05.2019 05:42 7,2 C 6,1 C 6,1 C 95 % 1009,6 hPa 0,0 l/m 0 min 0 min 0 W/m 3,2 km/h (1 Bft) 95,83 %
03.05.2019 05:44 7,1 C 6,1 C 6,1 C 95 % 1009,5 hPa 0,0 l/m 0 min 0 min 0 W/m 3,2 km/h (1 Bft) 95,92 %
03.05.2019 05:46 7,1 C 6,1 C 6,1 C 95 % 1009,6 hPa 0,0 l/m 0 min 0 min 0 W/m 6,4 km/h (2 Bft) 97,87 %
03.05.2019 05:48 7,1 C 6,1 C 6,1 C 95 % 1009,6 hPa 0,0 l/m 0 min 0 min 0 W/m 3,2 km/h (1 Bft) 97,83 %
03.05.2019 05:50 7,1 C 6,1 C 6,1 C 95 % 1009,6 hPa 0,0 l/m 0 min 0 min 0 W/m 3,2 km/h (1 Bft) 95,24 %
03.05.2019 05:52 7,1 C 6,1 C 6,1 C 95 % 1009,7 hPa 0,0 l/m 0 min 0 min 0 W/m 3,2 km/h (1 Bft) 95,92 %
03.05.2019 05:54 7,1 C 6,1 C 6,1 C 95 % 1009,8 hPa 0,0 l/m 0 min 0 min 0 W/m 0,0 km/h (0 Bft) 97,92 %
03.05.2019 05:56 7,1 C 6,1 C 5,6 C 95 % 1009,8 hPa 0,0 l/m 0 min 0 min 0 W/m 3,2 km/h (1 Bft) 93,88 %
03.05.2019 05:58 7,0 C 6,1 C 5,6 C 95 % 1009,8 hPa 0,0 l/m 0 min 0 min 0 W/m 0,0 km/h (0 Bft) 95,74 %
03.05.2019 06:00 7,0 C 6,1 C 5,6 C 95 % 1009,7 hPa 0,0 l/m 0 min 0 min 0 W/m 0,0 km/h (0 Bft) 95,65 %
03.05.2019 06:02 7,0 C 6,1 C 5,6 C 95 % 1009,8 hPa 0,0 l/m 0 min 0 min 0 W/m 3,2 km/h (1 Bft) 93,75 %
03.05.2019 06:04 7,0 C 6,1 C 5,6 C 95 % 1009,9 hPa 0,0 l/m 0 min 0 min 0 W/m 3,2 km/h (1 Bft) 93,62 %
03.05.2019 06:07 6,9 C 6,1 C 5,6 C 95 % 1010,0 hPa 0,0 l/m 0 min 0 min 0 W/m 3,2 km/h (1 Bft) 98,55 %
03.05.2019 06:08 6,9 C 6,1 C 5,6 C 95 % 1010,0 hPa 0,0 l/m 0 min 0 min 0 W/m 3,2 km/h (1 Bft) 95,65 %
03.05.2019 06:10 6,9 C 6,1 C 6,1 C 95 % 1010,0 hPa 0,0 l/m 0 min 0 min 0 W/m 3,2 km/h (1 Bft) 97,96 %
03.05.2019 06:12 6,9 C 6,1 C 6,1 C 95 % 1010,0 hPa 0,0 l/m 0 min 0 min 0 W/m 9,7 km/h (2 Bft) 97,83 %
03.05.2019 06:14 6,9 C 6,1 C 6,1 C 96 % 1010,0 hPa 0,0 l/m 0 min 0 min 0 W/m 6,4 km/h (2 Bft) 97,87 %
03.05.2019 06:16 6,9 C 6,1 C 6,1 C 96 % 1010,0 hPa 0,0 l/m 0 min 0 min 0 W/m 6,4 km/h (2 Bft) 100,00 %
03.05.2019 06:18 6,9 C 6,1 C 6,1 C 96 % 1010,1 hPa 0,0 l/m 0 min 0 min 0 W/m 6,4 km/h (2 Bft) 97,92 %
03.05.2019 06:20 7,0 C 6,7 C 6,1 C 96 % 1010,0 hPa 0,0 l/m 0 min 0 min 0 W/m 6,4 km/h (2 Bft) 97,96 %
03.05.2019 06:22 7,0 C 6,7 C 6,1 C 96 % 1010,1 hPa 0,0 l/m 0 min 0 min 5 W/m 12,9 km/h (3 Bft) 95,83 %
03.05.2019 06:24 7,0 C 6,7 C 6,1 C 96 % 1010,1 hPa 0,0 l/m 0 min 0 min 5 W/m 3,2 km/h (1 Bft) 97,87 %
03.05.2019 06:26 7,0 C 6,7 C 6,1 C 96 % 1010,2 hPa 0,0 l/m 0 min 0 min 5 W/m 0,0 km/h (0 Bft) 97,87 %
03.05.2019 06:28 7,0 C 6,7 C 6,1 C 96 % 1010,2 hPa 0,0 l/m 0 min 0 min 5 W/m 3,2 km/h (1 Bft) 97,62 %
03.05.2019 06:30 7,1 C 6,7 C 6,7 C 96 % 1010,3 hPa 0,0 l/m 0 min 0 min 5 W/m 9,7 km/h (2 Bft) 97,92 %
03.05.2019 06:32 7,1 C 6,7 C 6,7 C 96 % 1010,3 hPa 0,0 l/m 0 min 0 min 7 W/m 9,7 km/h (2 Bft) 97,37 %
03.05.2019 06:34 7,1 C 6,7 C 6,7 C 96 % 1010,3 hPa 0,0 l/m 0 min 0 min 7 W/m 3,2 km/h (1 Bft) 97,87 %
03.05.2019 06:36 7,1 C 6,7 C 6,7 C 96 % 1010,4 hPa 0,0 l/m 0 min 0 min 11 W/m 9,7 km/h (2 Bft) 96,67 %
03.05.2019 06:38 7,1 C 6,7 C 6,7 C 96 % 1010,4 hPa 0,0 l/m 0 min 0 min 14 W/m 9,7 km/h (2 Bft) 97,14 %
03.05.2019 06:40 7,1 C 6,7 C 6,7 C 96 % 1010,4 hPa 0,0 l/m 0 min 0 min 14 W/m 6,4 km/h (2 Bft) 97,87 %
03.05.2019 06:42 7,1 C 6,7 C 6,7 C 96 % 1010,4 hPa 0,0 l/m 0 min 0 min 15 W/m 9,7 km/h (2 Bft) 97,62 %
03.05.2019 06:44 7,1 C 6,7 C 6,7 C 96 % 1010,4 hPa 0,0 l/m 0 min 0 min 17 W/m 9,7 km/h (2 Bft) 97,92 %
03.05.2019 06:46 7,1 C 6,7 C 6,7 C 96 % 1010,4 hPa 0,0 l/m 0 min 0 min 21 W/m 12,9 km/h (3 Bft) 100,00 %
03.05.2019 06:48 7,1 C 6,7 C 6,7 C 96 % 1010,5 hPa 0,0 l/m 0 min 0 min 19 W/m 12,9 km/h (3 Bft) 100,00 %
03.05.2019 06:50 7,2 C 6,7 C 6,7 C 96 % 1010,5 hPa 0,0 l/m 0 min 0 min 12 W/m 9,7 km/h (2 Bft) 97,83 %
03.05.2019 06:52 7,2 C 6,7 C 6,7 C 96 % 1010,5 hPa 0,0 l/m 0 min 0 min 14 W/m 19,3 km/h (3 Bft) 97,87 %
03.05.2019 06:54 7,2 C 6,7 C 6,7 C 96 % 1010,5 hPa 0,0 l/m 0 min 0 min 11 W/m 9,7 km/h (2 Bft) 97,62 %
03.05.2019 06:56 7,2 C 6,7 C 6,7 C 96 % 1010,6 hPa 0,0 l/m 0 min 0 min 7 W/m 16,1 km/h (3 Bft) 97,96 %
03.05.2019 06:58 7,2 C 6,7 C 6,7 C 96 % 1010,6 hPa 0,0 l/m 0 min 0 min 7 W/m 9,7 km/h (2 Bft) 97,96 %
03.05.2019 07:00 7,2 C 6,7 C 6,7 C 96 % 1010,6 hPa 0,0 l/m 0 min 0 min 7 W/m 6,4 km/h (2 Bft) 97,87 %
03.05.2019 07:02 7,2 C 6,7 C 6,7 C 96 % 1010,7 hPa 0,0 l/m 0 min 0 min 8 W/m 6,4 km/h (2 Bft) 95,74 %
03.05.2019 07:04 7,2 C 6,7 C 6,7 C 96 % 1010,7 hPa 0,0 l/m 0 min 0 min 18 W/m 6,4 km/h (2 Bft) 97,87 %
03.05.2019 07:06 7,2 C 6,7 C 6,7 C 96 % 1010,6 hPa 0,0 l/m 0 min 0 min 30 W/m 6,4 km/h (2 Bft) 98,11 %
03.05.2019 07:08 7,2 C 7,2 C 6,7 C 96 % 1010,6 hPa 0,0 l/m 0 min 0 min 38 W/m 9,7 km/h (2 Bft) 97,30 %
03.05.2019 07:10 7,2 C 7,2 C 6,7 C 96 % 1010,6 hPa 0,0 l/m 0 min 0 min 37 W/m 6,4 km/h (2 Bft) 95,92 %
03.05.2019 07:12 7,2 C 7,2 C 6,7 C 96 % 1010,7 hPa 0,0 l/m 0 min 0 min 40 W/m 6,4 km/h (2 Bft) 97,92 %
03.05.2019 07:14 7,2 C 7,2 C 6,7 C 96 % 1010,7 hPa 0,0 l/m 0 min 0 min 47 W/m 9,7 km/h (2 Bft) 97,87 %
03.05.2019 07:16 7,2 C 7,2 C 6,7 C 96 % 1010,8 hPa 0,0 l/m 0 min 0 min 51 W/m 6,4 km/h (2 Bft) 95,74 %
03.05.2019 07:18 7,2 C 7,2 C 7,2 C 96 % 1010,8 hPa 0,0 l/m 0 min 0 min 50 W/m 6,4 km/h (2 Bft) 97,62 %
03.05.2019 07:20 7,2 C 7,2 C 7,2 C 96 % 1010,7 hPa 0,0 l/m 0 min 0 min 43 W/m 9,7 km/h (2 Bft) 97,92 %
03.05.2019 07:22 7,3 C 7,2 C 7,2 C 96 % 1010,8 hPa 0,0 l/m 0 min 0 min 43 W/m 9,7 km/h (2 Bft) 97,96 %
03.05.2019 07:24 7,2 C 7,2 C 6,7 C 96 % 1010,8 hPa 0,0 l/m 0 min 0 min 46 W/m 16,1 km/h (3 Bft) 97,92 %
03.05.2019 07:26 7,2 C 7,2 C 6,7 C 96 % 1010,8 hPa 0,0 l/m 0 min 0 min 52 W/m 12,9 km/h (3 Bft) 97,87 %
03.05.2019 07:28 7,2 C 7,2 C 7,2 C 96 % 1010,8 hPa 0,0 l/m 0 min 0 min 55 W/m 16,1 km/h (3 Bft) 97,87 %
03.05.2019 07:30 7,2 C 7,2 C 7,2 C 96 % 1010,9 hPa 0,0 l/m 0 min 0 min 61 W/m 9,7 km/h (2 Bft) 97,62 %
03.05.2019 07:32 7,2 C 7,2 C 7,2 C 96 % 1011,0 hPa 0,0 l/m 0 min 0 min 63 W/m 6,4 km/h (2 Bft) 97,96 %
03.05.2019 07:34 7,2 C 7,8 C 7,2 C 96 % 1011,0 hPa 0,0 l/m 0 min 0 min 66 W/m 12,9 km/h (3 Bft) 97,96 %
03.05.2019 07:36 7,2 C 7,8 C 7,2 C 96 % 1011,1 hPa 0,0 l/m 0 min 0 min 67 W/m 9,7 km/h (2 Bft) 96,61 %
03.05.2019 07:38 7,2 C 7,8 C 7,2 C 96 % 1011,0 hPa 0,0 l/m 0 min 0 min 66 W/m 12,9 km/h (3 Bft) 94,29 %
03.05.2019 07:40 7,2 C 7,8 C 7,2 C 96 % 1011,1 hPa 0,0 l/m 0 min 0 min 63 W/m 6,4 km/h (2 Bft) 97,87 %
03.05.2019 07:42 7,2 C 7,8 C 7,2 C 96 % 1011,0 hPa 0,0 l/m 0 min 0 min 63 W/m 9,7 km/h (2 Bft) 95,35 %
03.05.2019 07:44 7,2 C 7,8 C 7,2 C 96 % 1011,0 hPa 0,0 l/m 0 min 0 min 63 W/m 9,7 km/h (2 Bft) 97,92 %
03.05.2019 07:46 7,2 C 7,8 C 7,2 C 96 % 1011,0 hPa 0,0 l/m 0 min 0 min 69 W/m 9,7 km/h (2 Bft) 95,92 %
03.05.2019 07:48 7,2 C 7,8 C 7,2 C 96 % 1011,0 hPa 0,0 l/m 0 min 0 min 82 W/m 12,9 km/h (3 Bft) 93,62 %
03.05.2019 07:50 7,2 C 7,8 C 7,2 C 96 % 1011,0 hPa 0,0 l/m 0 min 0 min 96 W/m 12,9 km/h (3 Bft) 95,74 %
03.05.2019 07:52 7,2 C 8,3 C 7,8 C 96 % 1011,0 hPa 0,0 l/m 0 min 0 min 101 W/m 9,7 km/h (2 Bft) 100,00 %
03.05.2019 07:54 7,2 C 8,3 C 7,8 C 95 % 1011,0 hPa 0,0 l/m 0 min 0 min 99 W/m 12,9 km/h (3 Bft) 100,00 %
03.05.2019 07:56 7,2 C 8,3 C 7,8 C 95 % 1011,0 hPa 0,0 l/m 0 min 0 min 89 W/m 9,7 km/h (2 Bft) 97,92 %
03.05.2019 07:58 7,2 C 8,3 C 7,8 C 95 % 1011,1 hPa 0,0 l/m 0 min 0 min 86 W/m 12,9 km/h (3 Bft) 98,00 %
03.05.2019 08:00 7,2 C 8,3 C 7,8 C 95 % 1011,1 hPa 0,0 l/m 0 min 0 min 88 W/m 6,4 km/h (2 Bft) 97,83 %
03.05.2019 08:02 7,3 C 8,3 C 7,8 C 95 % 1011,1 hPa 0,0 l/m 0 min 0 min 103 W/m 12,9 km/h (3 Bft) 97,87 %
03.05.2019 08:04 7,3 C 8,3 C 7,8 C 95 % 1011,1 hPa 0,0 l/m 0 min 0 min 107 W/m 16,1 km/h (3 Bft) 100,00 %
03.05.2019 08:06 7,3 C 8,9 C 7,8 C 95 % 1011,2 hPa 0,0 l/m 0 min 0 min 104 W/m 9,7 km/h (2 Bft) 98,11 %
03.05.2019 08:08 7,3 C 8,9 C 7,8 C 95 % 1011,2 hPa 0,0 l/m 0 min 0 min 103 W/m 16,1 km/h (3 Bft) 97,30 %
03.05.2019 08:10 7,3 C 8,9 C 7,8 C 95 % 1011,1 hPa 0,0 l/m 0 min 0 min 104 W/m 16,1 km/h (3 Bft) 97,96 %
03.05.2019 08:12 7,3 C 8,3 C 7,8 C 94 % 1011,2 hPa 0,0 l/m 0 min 0 min 99 W/m 12,9 km/h (3 Bft) 93,88 %
03.05.2019 08:14 7,3 C 8,9 C 7,8 C 94 % 1011,2 hPa 0,0 l/m 0 min 0 min 105 W/m 6,4 km/h (2 Bft) 97,96 %
03.05.2019 08:16 7,3 C 8,9 C 7,8 C 94 % 1011,2 hPa 0,0 l/m 0 min 0 min 100 W/m 16,1 km/h (3 Bft) 95,83 %
03.05.2019 08:18 7,4 C 8,9 C 7,8 C 94 % 1011,1 hPa 0,0 l/m 0 min 0 min 94 W/m 12,9 km/h (3 Bft) 97,96 %
03.05.2019 08:20 7,4 C 8,9 C 7,8 C 94 % 1011,2 hPa 0,0 l/m 0 min 0 min 109 W/m 12,9 km/h (3 Bft) 97,83 %
03.05.2019 08:22 7,4 C 8,9 C 8,3 C 93 % 1011,2 hPa 0,0 l/m 0 min 0 min 118 W/m 12,9 km/h (3 Bft) 97,87 %
03.05.2019 08:24 7,5 C 9,4 C 8,3 C 93 % 1011,2 hPa 0,0 l/m 0 min 0 min 155 W/m 9,7 km/h (2 Bft) 97,62 %
03.05.2019 08:26 7,6 C 9,4 C 8,3 C 93 % 1011,2 hPa 0,0 l/m 2 min 0 min 182 W/m 9,7 km/h (2 Bft) 97,96 %
03.05.2019 08:28 7,6 C 10,6 C 8,9 C 93 % 1011,2 hPa 0,0 l/m 2 min 0 min 189 W/m 9,7 km/h (2 Bft) 97,92 %
03.05.2019 08:30 7,6 C 11,7 C 8,9 C 92 % 1011,2 hPa 0,0 l/m 0 min 0 min 174 W/m 9,7 km/h (2 Bft) 95,92 %
03.05.2019 08:32 7,7 C 12,8 C 8,9 C 92 % 1011,2 hPa 0,0 l/m 2 min 0 min 219 W/m 9,7 km/h (2 Bft) 97,83 %
03.05.2019 08:34 7,8 C 12,8 C 9,4 C 92 % 1011,2 hPa 0,0 l/m 2 min 0 min 215 W/m 16,1 km/h (3 Bft) 95,74 %
03.05.2019 08:36 7,8 C 12,2 C 9,4 C 91 % 1011,3 hPa 0,0 l/m 2 min 0 min 190 W/m 12,9 km/h (3 Bft) 95,35 %
03.05.2019 08:38 7,9 C 12,2 C 9,4 C 91 % 1011,3 hPa 0,0 l/m 0 min 0 min 185 W/m 16,1 km/h (3 Bft) 93,88 %
03.05.2019 08:40 7,9 C 12,2 C 9,4 C 91 % 1011,3 hPa 0,0 l/m 2 min 0 min 205 W/m 6,4 km/h (2 Bft) 97,92 %
03.05.2019 08:42 8,1 C 12,8 C 10,0 C 90 % 1011,3 hPa 0,0 l/m 2 min 0 min 227 W/m 6,4 km/h (2 Bft) 93,75 %
03.05.2019 08:44 8,2 C 13,3 C 10,0 C 90 % 1011,3 hPa 0,0 l/m 2 min 0 min 250 W/m 19,3 km/h (3 Bft) 95,65 %
03.05.2019 08:46 8,3 C 12,8 C 10,0 C 90 % 1011,3 hPa 0,0 l/m 2 min 0 min 220 W/m 19,3 km/h (3 Bft) 91,49 %
03.05.2019 08:48 8,3 C 11,7 C 9,4 C 88 % 1011,3 hPa 0,0 l/m 0 min 0 min 197 W/m 19,3 km/h (3 Bft) 93,02 %
03.05.2019 08:50 8,3 C 11,1 C 9,4 C 87 % 1011,2 hPa 0,0 l/m 2 min 0 min 231 W/m 19,3 km/h (3 Bft) 95,92 %
03.05.2019 08:52 8,3 C 11,1 C 9,4 C 85 % 1011,3 hPa 0,0 l/m 2 min 0 min 209 W/m 12,9 km/h (3 Bft) 95,83 %
03.05.2019 08:54 8,4 C 11,7 C 10,0 C 85 % 1011,3 hPa 0,0 l/m 0 min 0 min 186 W/m 16,1 km/h (3 Bft) 95,83 %
03.05.2019 08:56 8,5 C 11,7 C 10,0 C 84 % 1011,3 hPa 0,0 l/m 0 min 0 min 188 W/m 12,9 km/h (3 Bft) 93,48 %
03.05.2019 08:58 8,6 C 11,1 C 10,0 C 83 % 1011,3 hPa 0,0 l/m 2 min 0 min 212 W/m 12,9 km/h (3 Bft) 95,24 %
03.05.2019 09:00 8,6 C 12,2 C 10,6 C 83 % 1011,3 hPa 0,0 l/m 0 min 0 min 178 W/m 12,9 km/h (3 Bft) 95,74 %
03.05.2019 09:02 8,7 C 12,2 C 11,1 C 83 % 1011,3 hPa 0,0 l/m 2 min 0 min 244 W/m 12,9 km/h (3 Bft) 93,88 %
03.05.2019 09:04 8,7 C 11,7 C 10,6 C 82 % 1011,3 hPa 0,0 l/m 0 min 0 min 188 W/m 9,7 km/h (2 Bft) 95,74 %
03.05.2019 09:06 8,8 C 11,1 C 10,6 C 82 % 1011,4 hPa 0,0 l/m 0 min 0 min 178 W/m 12,9 km/h (3 Bft) 94,00 %
03.05.2019 09:08 8,8 C 11,7 C 10,6 C 81 % 1011,4 hPa 0,0 l/m 0 min 0 min 218 W/m 9,7 km/h (2 Bft) 95,74 %
03.05.2019 09:10 8,9 C 11,7 C 10,6 C 81 % 1011,4 hPa 0,0 l/m 2 min 0 min 248 W/m 16,1 km/h (3 Bft) 95,74 %
03.05.2019 09:12 8,9 C 12,8 C 11,7 C 80 % 1011,4 hPa 0,0 l/m 2 min 0 min 289 W/m 12,9 km/h (3 Bft) 95,74 %
03.05.2019 09:14 9,0 C 12,8 C 11,7 C 80 % 1011,4 hPa 0,0 l/m 0 min 0 min 216 W/m 16,1 km/h (3 Bft) 97,67 %
03.05.2019 09:16 9,1 C 12,2 C 11,7 C 80 % 1011,3 hPa 0,0 l/m 0 min 0 min 175 W/m 12,9 km/h (3 Bft) 95,83 %
03.05.2019 09:18 9,1 C 13,9 C 12,2 C 80 % 1011,3 hPa 0,0 l/m 0 min 0 min 151 W/m 16,1 km/h (3 Bft) 100,00 %
03.05.2019 09:20 9,2 C 12,8 C 11,1 C 79 % 1011,3 hPa 0,0 l/m 0 min 0 min 139 W/m 9,7 km/h (2 Bft) 97,87 %
03.05.2019 09:22 9,2 C 13,9 C 12,2 C 79 % 1011,4 hPa 0,0 l/m 0 min 0 min 125 W/m 6,4 km/h (2 Bft) 100,00 %
03.05.2019 09:24 9,3 C 15,6 C 14,4 C 79 % 1011,3 hPa 0,0 l/m 2 min 0 min 491 W/m 6,4 km/h (2 Bft) 100,00 %
03.05.2019 09:26 9,4 C 16,7 C 16,1 C 78 % 1011,4 hPa 0,0 l/m 2 min 0 min 466 W/m 9,7 km/h (2 Bft) 100,00 %
03.05.2019 09:28 9,6 C 16,7 C 16,1 C 78 % 1011,4 hPa 0,0 l/m 2 min 0 min 458 W/m 16,1 km/h (3 Bft) 97,96 %
03.05.2019 09:30 9,7 C 16,7 C 16,1 C 79 % 1011,3 hPa 0,0 l/m 2 min 0 min 448 W/m 12,9 km/h (3 Bft) 100,00 %
03.05.2019 09:32 9,9 C 15,6 C 15,0 C 78 % 1011,3 hPa 0,0 l/m 2 min 0 min 375 W/m 16,1 km/h (3 Bft) 100,00 %
03.05.2019 09:34 10,0 C 16,7 C 16,1 C 78 % 1011,3 hPa 0,0 l/m 2 min 0 min 353 W/m 6,4 km/h (2 Bft) 100,00 %
03.05.2019 09:36 10,2 C 17,8 C 16,7 C 77 % 1011,3 hPa 0,0 l/m 2 min 0 min 582 W/m 6,4 km/h (2 Bft) 100,00 %
03.05.2019 09:38 10,3 C 18,9 C 17,8 C 77 % 1011,3 hPa 0,0 l/m 2 min 0 min 608 W/m 16,1 km/h (3 Bft) 100,00 %
03.05.2019 09:40 10,6 C 19,4 C 18,3 C 78 % 1011,2 hPa 0,0 l/m 2 min 0 min 611 W/m 9,7 km/h (2 Bft) 100,00 %
03.05.2019 09:42 10,7 C 19,4 C 18,9 C 77 % 1011,3 hPa 0,0 l/m 2 min 0 min 644 W/m 12,9 km/h (3 Bft) 100,00 %
03.05.2019 09:44 10,9 C 19,4 C 18,9 C 76 % 1011,2 hPa 0,0 l/m 2 min 0 min 680 W/m 12,9 km/h (3 Bft) 100,00 %
03.05.2019 09:46 11,0 C 16,1 C 16,1 C 75 % 1011,2 hPa 0,0 l/m 2 min 0 min 439 W/m 9,7 km/h (2 Bft) 100,00 %
03.05.2019 09:48 11,1 C 13,9 C 13,9 C 74 % 1011,2 hPa 0,0 l/m 0 min 0 min 165 W/m 12,9 km/h (3 Bft) 95,74 %
03.05.2019 09:50 11,0 C 12,2 C 12,2 C 72 % 1011,2 hPa 0,0 l/m 0 min 0 min 152 W/m 16,1 km/h (3 Bft) 97,56 %
03.05.2019 09:52 10,9 C 11,1 C 11,7 C 72 % 1011,3 hPa 0,0 l/m 0 min 0 min 161 W/m 12,9 km/h (3 Bft) 97,96 %
03.05.2019 09:54 10,9 C 11,1 C 11,1 C 72 % 1011,2 hPa 0,0 l/m 0 min 0 min 185 W/m 12,9 km/h (3 Bft) 97,96 %
03.05.2019 09:56 10,9 C 11,7 C 11,7 C 72 % 1011,2 hPa 0,0 l/m 0 min 0 min 203 W/m 16,1 km/h (3 Bft) 95,83 %
03.05.2019 09:58 10,8 C 11,1 C 11,1 C 72 % 1011,3 hPa 0,0 l/m 0 min 0 min 195 W/m 12,9 km/h (3 Bft) 95,74 %
03.05.2019 10:00 10,8 C 11,1 C 11,1 C 72 % 1011,3 hPa 0,0 l/m 0 min 0 min 214 W/m 9,7 km/h (2 Bft) 97,87 %
03.05.2019 10:02 10,8 C 11,1 C 11,1 C 73 % 1011,3 hPa 0,0 l/m 0 min 0 min 216 W/m 9,7 km/h (2 Bft) 97,56 %
03.05.2019 10:04 10,7 C 11,1 C 11,1 C 72 % 1011,3 hPa 0,0 l/m 0 min 0 min 227 W/m 16,1 km/h (3 Bft) 97,87 %
03.05.2019 10:06 10,7 C 12,2 C 11,7 C 74 % 1011,4 hPa 0,0 l/m 0 min 0 min 270 W/m 9,7 km/h (2 Bft) 98,00 %
03.05.2019 10:08 10,6 C 13,3 C 12,8 C 73 % 1011,4 hPa 0,0 l/m 0 min 0 min 280 W/m 16,1 km/h (3 Bft) 97,96 %
03.05.2019 10:10 10,6 C 13,9 C 12,8 C 73 % 1011,4 hPa 0,0 l/m 2 min 0 min 295 W/m 16,1 km/h (3 Bft) 100,00 %
03.05.2019 10:12 10,6 C 12,8 C 12,8 C 73 % 1011,3 hPa 0,0 l/m 0 min 0 min 252 W/m 12,9 km/h (3 Bft) 97,87 %
03.05.2019 10:14 10,6 C 12,8 C 12,2 C 73 % 1011,3 hPa 0,0 l/m 0 min 0 min 257 W/m 9,7 km/h (2 Bft) 95,74 %
03.05.2019 10:16 10,6 C 15,0 C 13,9 C 73 % 1011,3 hPa 0,0 l/m 2 min 0 min 301 W/m 9,7 km/h (2 Bft) 97,62 %
03.05.2019 10:18 10,7 C 16,7 C 15,6 C 74 % 1011,3 hPa 0,0 l/m 2 min 0 min 498 W/m 9,7 km/h (2 Bft) 97,96 %
03.05.2019 10:20 10,8 C 15,6 C 15,0 C 74 % 1011,3 hPa 0,0 l/m 2 min 0 min 481 W/m 9,7 km/h (2 Bft) 97,96 %
03.05.2019 10:22 10,9 C 16,1 C 15,6 C 73 % 1011,3 hPa 0,0 l/m 2 min 0 min 316 W/m 16,1 km/h (3 Bft) 95,74 %
03.05.2019 10:24 11,0 C 16,1 C 15,0 C 74 % 1011,3 hPa 0,0 l/m 2 min 0 min 422 W/m 9,7 km/h (2 Bft) 95,74 %
03.05.2019 10:26 11,1 C 15,6 C 15,0 C 74 % 1011,3 hPa 0,0 l/m 2 min 0 min 365 W/m 12,9 km/h (3 Bft) 97,87 %
03.05.2019 10:28 11,2 C 16,1 C 15,6 C 73 % 1011,3 hPa 0,0 l/m 2 min 0 min 406 W/m 12,9 km/h (3 Bft) 97,62 %
03.05.2019 10:30 11,3 C 16,7 C 15,6 C 72 % 1011,3 hPa 0,0 l/m 2 min 0 min 406 W/m 16,1 km/h (3 Bft) 97,96 %
03.05.2019 10:32 11,3 C 15,0 C 14,4 C 72 % 1011,2 hPa 0,0 l/m 2 min 0 min 322 W/m 12,9 km/h (3 Bft) 97,96 %
03.05.2019 10:34 11,3 C 13,3 C 13,3 C 71 % 1011,3 hPa 0,0 l/m 0 min 0 min 179 W/m 12,9 km/h (3 Bft) 100,00 %
03.05.2019 10:36 11,3 C 12,2 C 12,2 C 70 % 1011,3 hPa 0,0 l/m 0 min 0 min 167 W/m 16,1 km/h (3 Bft) 100,00 %
03.05.2019 10:38 11,2 C 11,7 C 11,7 C 70 % 1011,2 hPa 0,0 l/m 0 min 0 min 151 W/m 19,3 km/h (3 Bft) 100,00 %
03.05.2019 10:40 11,1 C 11,7 C 11,1 C 70 % 1011,2 hPa 0,0 l/m 0 min 0 min 152 W/m 12,9 km/h (3 Bft) 100,00 %
03.05.2019 10:42 11,1 C 13,9 C 12,8 C 71 % 1011,2 hPa 0,0 l/m 0 min 0 min 249 W/m 9,7 km/h (2 Bft) 97,92 %
03.05.2019 10:44 11,1 C 16,7 C 15,6 C 71 % 1011,2 hPa 0,0 l/m 2 min 0 min 648 W/m 6,4 km/h (2 Bft) 100,00 %
03.05.2019 10:46 11,1 C 17,2 C 16,1 C 71 % 1011,2 hPa 0,0 l/m 2 min 0 min 744 W/m 16,1 km/h (3 Bft) 100,00 %
03.05.2019 10:48 11,2 C 18,3 C 17,2 C 70 % 1011,2 hPa 0,0 l/m 2 min 0 min 795 W/m 6,4 km/h (2 Bft) 97,56 %
03.05.2019 10:50 11,3 C 20,6 C 19,4 C 70 % 1011,2 hPa 0,0 l/m 2 min 0 min 850 W/m 12,9 km/h (3 Bft) 97,96 %
03.05.2019 10:52 11,5 C 20,6 C 19,4 C 71 % 1011,2 hPa 0,0 l/m 2 min 0 min 755 W/m 9,7 km/h (2 Bft) 97,96 %
03.05.2019 10:54 11,7 C 20,0 C 18,3 C 70 % 1011,2 hPa 0,0 l/m 2 min 0 min 526 W/m 6,4 km/h (2 Bft) 97,92 %
03.05.2019 10:56 11,7 C 17,2 C 16,1 C 70 % 1011,2 hPa 0,0 l/m 2 min 0 min 353 W/m 9,7 km/h (2 Bft) 97,87 %
03.05.2019 10:58 11,7 C 14,4 C 13,9 C 69 % 1011,3 hPa 0,0 l/m 0 min 0 min 225 W/m 12,9 km/h (3 Bft) 97,87 %
03.05.2019 11:00 11,7 C 14,4 C 13,9 C 69 % 1011,3 hPa 0,0 l/m 0 min 0 min 254 W/m 9,7 km/h (2 Bft) 95,74 %
03.05.2019 11:02 11,7 C 12,8 C 12,8 C 69 % 1011,3 hPa 0,0 l/m 0 min 0 min 211 W/m 9,7 km/h (2 Bft) 95,35 %
03.05.2019 11:04 11,6 C 12,2 C 11,7 C 69 % 1011,3 hPa 0,0 l/m 0 min 0 min 205 W/m 9,7 km/h (2 Bft) 97,87 %
03.05.2019 11:06 11,4 C 11,7 C 11,1 C 69 % 1011,3 hPa 0,0 l/m 0 min 0 min 239 W/m 12,9 km/h (3 Bft) 98,00 %
03.05.2019 11:08 11,3 C 11,7 C 11,1 C 70 % 1011,2 hPa 0,0 l/m 0 min 0 min 271 W/m 12,9 km/h (3 Bft) 93,62 %
03.05.2019 11:10 11,2 C 11,7 C 11,1 C 70 % 1011,3 hPa 0,0 l/m 0 min 0 min 231 W/m 19,3 km/h (3 Bft) 97,87 %
03.05.2019 11:12 11,1 C 11,1 C 11,1 C 70 % 1011,2 hPa 0,0 l/m 0 min 0 min 192 W/m 16,1 km/h (3 Bft) 97,87 %
03.05.2019 11:14 11,0 C 11,1 C 10,6 C 70 % 1011,2 hPa 0,0 l/m 0 min 0 min 191 W/m 9,7 km/h (2 Bft) 97,62 %
03.05.2019 11:16 10,9 C 11,7 C 11,1 C 71 % 1011,2 hPa 0,0 l/m 0 min 0 min 192 W/m 9,7 km/h (2 Bft) 97,96 %
03.05.2019 11:18 10,9 C 11,1 C 11,1 C 71 % 1011,2 hPa 0,0 l/m 0 min 0 min 176 W/m 12,9 km/h (3 Bft) 95,92 %
03.05.2019 11:20 10,8 C 11,1 C 11,1 C 72 % 1011,2 hPa 0,0 l/m 0 min 0 min 154 W/m 6,4 km/h (2 Bft) 97,87 %
03.05.2019 11:22 10,8 C 11,1 C 11,1 C 72 % 1011,2 hPa 0,0 l/m 0 min 0 min 167 W/m 9,7 km/h (2 Bft) 95,74 %
03.05.2019 11:24 10,8 C 12,2 C 11,7 C 72 % 1011,1 hPa 0,0 l/m 0 min 0 min 230 W/m 9,7 km/h (2 Bft) 95,74 %
03.05.2019 11:26 10,8 C 13,9 C 13,3 C 72 % 1011,2 hPa 0,0 l/m 0 min 0 min 285 W/m 16,1 km/h (3 Bft) 97,62 %
03.05.2019 11:28 10,9 C 14,4 C 13,3 C 72 % 1011,1 hPa 0,0 l/m 0 min 0 min 285 W/m 16,1 km/h (3 Bft) 97,96 %
03.05.2019 11:30 11,0 C 16,1 C 15,6 C 71 % 1011,0 hPa 0,0 l/m 2 min 0 min 512 W/m 9,7 km/h (2 Bft) 100,00 %
03.05.2019 11:32 11,1 C 17,8 C 16,7 C 71 % 1011,1 hPa 0,0 l/m 2 min 0 min 790 W/m 16,1 km/h (3 Bft) 100,00 %
03.05.2019 11:34 11,3 C 18,3 C 17,2 C 70 % 1011,2 hPa 0,0 l/m 2 min 0 min 738 W/m 12,9 km/h (3 Bft) 100,00 %
03.05.2019 11:36 11,4 C 18,9 C 17,8 C 66 % 1011,1 hPa 0,0 l/m 2 min 0 min 760 W/m 16,1 km/h (3 Bft) 97,56 %
03.05.2019 11:38 11,6 C 18,9 C 18,3 C 66 % 1011,0 hPa 0,0 l/m 2 min 0 min 796 W/m 12,9 km/h (3 Bft) 100,00 %
03.05.2019 11:40 11,8 C 18,3 C 17,8 C 64 % 1011,1 hPa 0,0 l/m 2 min 0 min 758 W/m 19,3 km/h (3 Bft) 100,00 %
03.05.2019 11:42 12,0 C 19,4 C 18,9 C 65 % 1011,0 hPa 0,0 l/m 2 min 0 min 870 W/m 22,5 km/h (4 Bft) 100,00 %
03.05.2019 11:44 12,3 C 20,0 C 18,9 C 65 % 1011,0 hPa 0,0 l/m 2 min 0 min 939 W/m 12,9 km/h (3 Bft) 100,00 %
03.05.2019 11:46 12,4 C 17,2 C 17,2 C 65 % 1011,0 hPa 0,0 l/m 2 min 0 min 778 W/m 22,5 km/h (4 Bft) 97,87 %
03.05.2019 11:48 12,4 C 16,1 C 16,1 C 64 % 1011,0 hPa 0,0 l/m 0 min 0 min 300 W/m 12,9 km/h (3 Bft) 100,00 %
03.05.2019 11:50 12,4 C 15,6 C 15,6 C 62 % 1011,0 hPa 0,0 l/m 0 min 0 min 315 W/m 16,1 km/h (3 Bft) 97,96 %
03.05.2019 11:52 12,4 C 14,4 C 14,4 C 62 % 1011,1 hPa 0,0 l/m 0 min 0 min 301 W/m 16,1 km/h (3 Bft) 100,00 %
03.05.2019 11:54 12,4 C 14,4 C 14,4 C 62 % 1011,2 hPa 0,0 l/m 0 min 0 min 307 W/m 12,9 km/h (3 Bft) 100,00 %
03.05.2019 11:56 12,3 C 14,4 C 14,4 C 62 % 1011,1 hPa 0,0 l/m 0 min 0 min 310 W/m 12,9 km/h (3 Bft) 100,00 %
03.05.2019 11:58 12,3 C 13,9 C 13,3 C 63 % 1011,0 hPa 0,0 l/m 0 min 0 min 235 W/m 12,9 km/h (3 Bft) 100,00 %
03.05.2019 12:00 12,2 C 13,3 C 12,8 C 64 % 1011,1 hPa 0,0 l/m 0 min 0 min 212 W/m 16,1 km/h (3 Bft) 100,00 %
03.05.2019 12:02 12,2 C 12,8 C 12,8 C 64 % 1011,2 hPa 0,0 l/m 0 min 0 min 186 W/m 9,7 km/h (2 Bft) 100,00 %
03.05.2019 12:04 12,1 C 12,8 C 12,2 C 64 % 1011,1 hPa 0,0 l/m 0 min 0 min 200 W/m 9,7 km/h (2 Bft) 100,00 %
03.05.2019 12:07 12,0 C 13,3 C 12,8 C 64 % 1011,1 hPa 0,0 l/m 0 min 0 min 245 W/m 16,1 km/h (3 Bft) 100,00 %
03.05.2019 12:08 12,0 C 15,0 C 13,9 C 65 % 1011,1 hPa 0,0 l/m 1 min 0 min 390 W/m 6,4 km/h (2 Bft) 100,00 %
03.05.2019 12:10 12,0 C 16,7 C 15,6 C 65 % 1011,1 hPa 0,0 l/m 2 min 0 min 661 W/m 16,1 km/h (3 Bft) 100,00 %
03.05.2019 12:12 12,1 C 18,3 C 17,2 C 65 % 1011,1 hPa 0,0 l/m 2 min 0 min 760 W/m 12,9 km/h (3 Bft) 100,00 %
03.05.2019 12:14 12,2 C 20,0 C 18,9 C 66 % 1011,1 hPa 0,0 l/m 2 min 0 min 787 W/m 9,7 km/h (2 Bft) 100,00 %
03.05.2019 12:16 12,3 C 20,0 C 18,9 C 65 % 1011,0 hPa 0,0 l/m 2 min 0 min 756 W/m 9,7 km/h (2 Bft) 100,00 %
03.05.2019 12:18 12,5 C 21,1 C 20,6 C 65 % 1011,0 hPa 0,0 l/m 2 min 0 min 852 W/m 12,9 km/h (3 Bft) 100,00 %
03.05.2019 12:20 12,7 C 20,0 C 20,0 C 63 % 1010,9 hPa 0,0 l/m 2 min 0 min 833 W/m 19,3 km/h (3 Bft) 100,00 %
03.05.2019 12:22 12,8 C 20,0 C 20,0 C 61 % 1011,0 hPa 0,0 l/m 2 min 0 min 1032 W/m 16,1 km/h (3 Bft) 100,00 %
03.05.2019 12:24 12,8 C 17,2 C 16,7 C 59 % 1010,9 hPa 0,0 l/m 2 min 0 min 1066 W/m 25,7 km/h (4 Bft) 100,00 %
03.05.2019 12:26 12,8 C 15,6 C 15,0 C 60 % 1011,0 hPa 0,0 l/m 0 min 0 min 315 W/m 16,1 km/h (3 Bft) 97,62 %
03.05.2019 12:28 12,8 C 15,0 C 14,4 C 61 % 1010,9 hPa 0,0 l/m 0 min 0 min 267 W/m 12,9 km/h (3 Bft) 100,00 %
03.05.2019 12:30 12,7 C 13,9 C 13,9 C 61 % 1011,1 hPa 0,0 l/m 0 min 0 min 252 W/m 22,5 km/h (4 Bft) 100,00 %
03.05.2019 12:32 12,7 C 15,0 C 15,0 C 61 % 1011,0 hPa 0,0 l/m 0 min 0 min 262 W/m 19,3 km/h (3 Bft) 97,87 %
03.05.2019 12:34 12,7 C 16,7 C 16,7 C 60 % 1011,0 hPa 0,0 l/m 2 min 0 min 684 W/m 6,4 km/h (2 Bft) 97,87 %
03.05.2019 12:36 12,7 C 18,3 C 17,8 C 60 % 1011,0 hPa 0,0 l/m 2 min 0 min 898 W/m 22,5 km/h (4 Bft) 97,56 %
03.05.2019 12:38 12,8 C 16,7 C 16,7 C 60 % 1011,0 hPa 0,0 l/m 2 min 0 min 489 W/m 22,5 km/h (4 Bft) 97,96 %
03.05.2019 12:40 12,9 C 16,1 C 15,6 C 61 % 1011,0 hPa 0,0 l/m 0 min 0 min 281 W/m 12,9 km/h (3 Bft) 97,96 %
03.05.2019 12:42 12,9 C 15,0 C 15,0 C 60 % 1011,0 hPa 0,0 l/m 0 min 0 min 292 W/m 19,3 km/h (3 Bft) 97,92 %
03.05.2019 12:44 12,9 C 16,7 C 16,7 C 59 % 1011,0 hPa 0,0 l/m 0 min 0 min 373 W/m 12,9 km/h (3 Bft) 97,87 %
03.05.2019 12:46 12,9 C 17,8 C 17,2 C 59 % 1011,0 hPa 0,0 l/m 0 min 0 min 373 W/m 16,1 km/h (3 Bft) 97,87 %
03.05.2019 12:48 13,1 C 17,2 C 17,2 C 58 % 1010,9 hPa 0,0 l/m 0 min 0 min 373 W/m 12,9 km/h (3 Bft) 97,56 %
03.05.2019 12:50 13,1 C 16,1 C 16,1 C 58 % 1010,9 hPa 0,0 l/m 0 min 0 min 360 W/m 22,5 km/h (4 Bft) 97,96 %
03.05.2019 12:52 13,1 C 15,6 C 15,6 C 58 % 1011,0 hPa 0,0 l/m 0 min 0 min 339 W/m 25,7 km/h (4 Bft) 97,96 %
03.05.2019 12:54 13,1 C 14,4 C 14,4 C 58 % 1010,9 hPa 0,0 l/m 0 min 0 min 269 W/m 19,3 km/h (3 Bft) 97,92 %
03.05.2019 12:56 13,0 C 13,9 C 13,9 C 57 % 1011,0 hPa 0,0 l/m 0 min 0 min 222 W/m 19,3 km/h (3 Bft) 97,87 %
03.05.2019 12:58 12,9 C 13,9 C 13,3 C 59 % 1010,9 hPa 0,0 l/m 0 min 0 min 232 W/m 16,1 km/h (3 Bft) 97,87 %
03.05.2019 13:00 12,9 C 16,1 C 15,6 C 59 % 1010,9 hPa 0,0 l/m 0 min 0 min 333 W/m 9,7 km/h (2 Bft) 97,87 %
03.05.2019 13:02 12,9 C 18,3 C 18,3 C 59 % 1010,9 hPa 0,0 l/m 2 min 0 min 970 W/m 12,9 km/h (3 Bft) 97,67 %
03.05.2019 13:04 13,1 C 20,0 C 20,0 C 60 % 1010,9 hPa 0,0 l/m 2 min 0 min 906 W/m 12,9 km/h (3 Bft) 97,87 %
03.05.2019 13:06 13,4 C 21,1 C 21,1 C 61 % 1010,9 hPa 0,0 l/m 2 min 0 min 911 W/m 19,3 km/h (3 Bft) 96,00 %
03.05.2019 13:08 13,7 C 21,1 C 21,1 C 60 % 1010,9 hPa 0,0 l/m 2 min 0 min 885 W/m 16,1 km/h (3 Bft) 97,87 %
03.05.2019 13:10 13,9 C 21,7 C 22,2 C 58 % 1010,8 hPa 0,0 l/m 2 min 0 min 1000 W/m 12,9 km/h (3 Bft) 95,74 %
03.05.2019 13:12 14,1 C 20,6 C 21,1 C 55 % 1010,8 hPa 0,0 l/m 2 min 0 min 993 W/m 9,7 km/h (2 Bft) 93,48 %
03.05.2019 13:14 14,2 C 20,0 C 20,6 C 57 % 1010,8 hPa 0,0 l/m 2 min 0 min 1068 W/m 12,9 km/h (3 Bft) 95,35 %
03.05.2019 13:16 14,2 C 20,6 C 21,7 C 57 % 1010,8 hPa 0,0 l/m 2 min 0 min 1092 W/m 22,5 km/h (4 Bft) 95,92 %
03.05.2019 13:18 14,3 C 18,9 C 19,4 C 56 % 1010,8 hPa 0,0 l/m 2 min 0 min 984 W/m 19,3 km/h (3 Bft) 97,96 %
03.05.2019 13:20 14,3 C 16,7 C 17,2 C 54 % 1010,8 hPa 0,0 l/m 0 min 0 min 356 W/m 25,7 km/h (4 Bft) 93,62 %
03.05.2019 13:22 14,2 C 16,1 C 16,1 C 55 % 1010,9 hPa 0,0 l/m 0 min 0 min 391 W/m 25,7 km/h (4 Bft) 97,87 %
03.05.2019 13:24 14,2 C 15,6 C 15,6 C 55 % 1010,9 hPa 0,0 l/m 0 min 0 min 366 W/m 19,3 km/h (3 Bft) 97,83 %
03.05.2019 13:26 14,1 C 15,6 C 15,6 C 55 % 1010,9 hPa 0,0 l/m 2 min 0 min 414 W/m 25,7 km/h (4 Bft) 97,67 %
03.05.2019 13:28 13,9 C 16,1 C 16,1 C 56 % 1010,8 hPa 0,0 l/m 2 min 0 min 467 W/m 12,9 km/h (3 Bft) 95,92 %
03.05.2019 13:30 14,0 C 17,8 C 18,3 C 56 % 1010,8 hPa 0,0 l/m 2 min 0 min 461 W/m 22,5 km/h (4 Bft) 97,92 %
03.05.2019 13:32 13,9 C 17,2 C 17,8 C 55 % 1010,9 hPa 0,0 l/m 0 min 0 min 341 W/m 19,3 km/h (3 Bft) 95,83 %
03.05.2019 13:34 14,0 C 19,4 C 20,0 C 54 % 1010,8 hPa 0,0 l/m 2 min 0 min 635 W/m 16,1 km/h (3 Bft) 97,87 %
03.05.2019 13:36 14,2 C 21,1 C 22,8 C 55 % 1010,8 hPa 0,0 l/m 2 min 0 min 1073 W/m 19,3 km/h (3 Bft) 95,12 %
03.05.2019 13:38 14,2 C 22,8 C 24,4 C 56 % 1010,7 hPa 0,0 l/m 2 min 0 min 1092 W/m 16,1 km/h (3 Bft) 93,88 %
03.05.2019 13:40 14,5 C 22,2 C 23,9 C 58 % 1010,6 hPa 0,0 l/m 2 min 0 min 1095 W/m 12,9 km/h (3 Bft) 97,96 %
03.05.2019 13:42 14,7 C 21,7 C 22,8 C 56 % 1010,6 hPa 0,0 l/m 2 min 0 min 1082 W/m 16,1 km/h (3 Bft) 95,83 %
03.05.2019 13:44 14,8 C 21,1 C 22,8 C 52 % 1010,7 hPa 0,0 l/m 2 min 0 min 1054 W/m 12,9 km/h (3 Bft) 97,87 %
03.05.2019 13:46 14,8 C 20,6 C 22,2 C 51 % 1010,6 hPa 0,0 l/m 2 min 0 min 1110 W/m 19,3 km/h (3 Bft) 97,87 %
03.05.2019 13:48 14,9 C 20,0 C 22,2 C 51 % 1010,6 hPa 0,0 l/m 2 min 0 min 816 W/m 19,3 km/h (3 Bft) 97,56 %
03.05.2019 13:50 15,0 C 18,9 C 20,0 C 52 % 1010,5 hPa 0,0 l/m 2 min 0 min 494 W/m 16,1 km/h (3 Bft) 97,96 %
03.05.2019 13:52 15,0 C 16,7 C 17,8 C 52 % 1010,5 hPa 0,0 l/m 0 min 0 min 266 W/m 19,3 km/h (3 Bft) 100,00 %
03.05.2019 13:54 14,9 C 15,6 C 16,1 C 51 % 1010,5 hPa 0,0 l/m 0 min 0 min 283 W/m 16,1 km/h (3 Bft) 100,00 %
03.05.2019 13:56 14,8 C 17,2 C 18,3 C 54 % 1010,6 hPa 0,0 l/m 0 min 0 min 301 W/m 12,9 km/h (3 Bft) 100,00 %
03.05.2019 13:58 14,8 C 18,3 C 18,9 C 55 % 1010,6 hPa 0,0 l/m 0 min 0 min 307 W/m 16,1 km/h (3 Bft) 95,74 %
03.05.2019 14:00 14,9 C 18,9 C 19,4 C 54 % 1010,6 hPa 0,0 l/m 0 min 0 min 360 W/m 9,7 km/h (2 Bft) 100,00 %
03.05.2019 14:02 14,9 C 20,0 C 20,6 C 53 % 1010,6 hPa 0,0 l/m 0 min 0 min 336 W/m 16,1 km/h (3 Bft) 100,00 %
03.05.2019 14:04 15,0 C 20,0 C 21,1 C 53 % 1010,6 hPa 0,0 l/m 0 min 0 min 374 W/m 19,3 km/h (3 Bft) 97,87 %
03.05.2019 14:06 15,1 C 20,6 C 21,7 C 53 % 1010,6 hPa 0,0 l/m 2 min 0 min 822 W/m 16,1 km/h (3 Bft) 100,00 %
03.05.2019 14:08 15,1 C 20,6 C 22,2 C 53 % 1010,6 hPa 0,0 l/m 2 min 0 min 775 W/m 16,1 km/h (3 Bft) 97,96 %
03.05.2019 14:10 15,2 C 20,6 C 22,2 C 52 % 1010,6 hPa 0,0 l/m 2 min 0 min 869 W/m 12,9 km/h (3 Bft) 100,00 %
03.05.2019 14:12 15,2 C 19,4 C 21,7 C 51 % 1010,6 hPa 0,0 l/m 2 min 0 min 1080 W/m 12,9 km/h (3 Bft) 100,00 %
03.05.2019 14:14 15,3 C 21,1 C 22,8 C 53 % 1010,5 hPa 0,0 l/m 2 min 0 min 807 W/m 16,1 km/h (3 Bft) 97,62 %
03.05.2019 14:16 15,4 C 20,6 C 22,8 C 53 % 1010,6 hPa 0,0 l/m 2 min 0 min 1074 W/m 19,3 km/h (3 Bft) 100,00 %
03.05.2019 14:18 15,4 C 20,6 C 22,2 C 53 % 1010,6 hPa 0,0 l/m 2 min 0 min 998 W/m 9,7 km/h (2 Bft) 100,00 %
03.05.2019 14:20 15,4 C 20,0 C 21,1 C 51 % 1010,5 hPa 0,0 l/m 2 min 0 min 998 W/m 16,1 km/h (3 Bft) 100,00 %
03.05.2019 14:22 15,5 C 19,4 C 20,6 C 51 % 1010,5 hPa 0,0 l/m 2 min 0 min 584 W/m 16,1 km/h (3 Bft) 100,00 %
03.05.2019 14:24 15,4 C 18,3 C 18,9 C 51 % 1010,5 hPa 0,0 l/m 2 min 0 min 609 W/m 19,3 km/h (3 Bft) 100,00 %
03.05.2019 14:26 15,4 C 18,3 C 18,9 C 52 % 1010,5 hPa 0,0 l/m 2 min 0 min 651 W/m 12,9 km/h (3 Bft) 100,00 %
03.05.2019 14:28 15,3 C 18,3 C 18,3 C 52 % 1010,5 hPa 0,0 l/m 2 min 0 min 699 W/m 19,3 km/h (3 Bft) 97,96 %
03.05.2019 14:30 15,3 C 19,4 C 19,4 C 53 % 1010,5 hPa 0,0 l/m 2 min 0 min 751 W/m 19,3 km/h (3 Bft) 100,00 %
03.05.2019 14:32 15,4 C 20,6 C 19,4 C 53 % 1010,5 hPa 0,0 l/m 2 min 0 min 740 W/m 19,3 km/h (3 Bft) 100,00 %
03.05.2019 14:34 15,5 C 20,0 C 18,9 C 53 % 1010,4 hPa 0,0 l/m 2 min 0 min 736 W/m 16,1 km/h (3 Bft) 100,00 %
03.05.2019 14:36 15,5 C 18,9 C 18,3 C 51 % 1010,5 hPa 0,0 l/m 2 min 0 min 724 W/m 19,3 km/h (3 Bft) 95,74 %
03.05.2019 14:38 15,5 C 18,9 C 18,3 C 51 % 1010,5 hPa 0,0 l/m 2 min 0 min 655 W/m 16,1 km/h (3 Bft) 100,00 %
03.05.2019 14:40 15,5 C 18,9 C 18,3 C 51 % 1010,4 hPa 0,0 l/m 2 min 0 min 650 W/m 19,3 km/h (3 Bft) 100,00 %
03.05.2019 14:42 15,5 C 18,3 C 17,8 C 50 % 1010,3 hPa 0,0 l/m 2 min 0 min 508 W/m 12,9 km/h (3 Bft) 100,00 %
03.05.2019 14:44 15,5 C 16,7 C 17,2 C 50 % 1010,4 hPa 0,0 l/m 2 min 0 min 389 W/m 16,1 km/h (3 Bft) 97,96 %
03.05.2019 14:46 15,3 C 16,7 C 16,1 C 50 % 1010,1 hPa 0,0 l/m 0 min 0 min 376 W/m 16,1 km/h (3 Bft) 97,92 %
03.05.2019 14:48 15,2 C 16,1 C 16,1 C 50 % 1010,3 hPa 0,0 l/m 2 min 0 min 393 W/m 22,5 km/h (4 Bft) 97,87 %
03.05.2019 14:50 15,1 C 15,6 C 15,6 C 49 % 1010,3 hPa 0,0 l/m 2 min 0 min 395 W/m 25,7 km/h (4 Bft) 100,00 %
03.05.2019 14:52 15,0 C 15,6 C 15,0 C 49 % 1010,2 hPa 0,0 l/m 2 min 0 min 399 W/m 19,3 km/h (3 Bft) 100,00 %
03.05.2019 14:54 14,9 C 15,6 C 15,6 C 51 % 1010,2 hPa 0,0 l/m 2 min 0 min 393 W/m 16,1 km/h (3 Bft) 97,92 %
03.05.2019 14:56 14,8 C 16,1 C 15,6 C 52 % 1010,2 hPa 0,0 l/m 2 min 0 min 388 W/m 12,9 km/h (3 Bft) 97,96 %
03.05.2019 14:58 14,7 C 15,6 C 15,0 C 51 % 1010,3 hPa 0,0 l/m 2 min 0 min 378 W/m 16,1 km/h (3 Bft) 97,92 %
03.05.2019 15:00 14,7 C 15,6 C 15,0 C 52 % 1010,2 hPa 0,0 l/m 0 min 0 min 371 W/m 16,1 km/h (3 Bft) 100,00 %
03.05.2019 15:02 14,6 C 15,6 C 15,0 C 53 % 1010,2 hPa 0,0 l/m 2 min 0 min 376 W/m 12,9 km/h (3 Bft) 100,00 %
03.05.2019 15:04 14,6 C 15,6 C 15,6 C 54 % 1010,2 hPa 0,0 l/m 0 min 0 min 358 W/m 9,7 km/h (2 Bft) 95,74 %
03.05.2019 15:06 14,6 C 15,6 C 15,6 C 54 % 1010,1 hPa 0,0 l/m 0 min 0 min 322 W/m 12,9 km/h (3 Bft) 97,62 %
03.05.2019 15:08 14,5 C 15,6 C 15,0 C 53 % 1010,2 hPa 0,0 l/m 0 min 0 min 302 W/m 16,1 km/h (3 Bft) 97,96 %
03.05.2019 15:10 14,5 C 15,6 C 15,0 C 54 % 1010,1 hPa 0,0 l/m 0 min 0 min 317 W/m 16,1 km/h (3 Bft) 100,00 %
03.05.2019 15:12 14,4 C 15,6 C 15,0 C 52 % 1010,1 hPa 0,0 l/m 0 min 0 min 339 W/m 9,7 km/h (2 Bft) 95,74 %
03.05.2019 15:14 14,4 C 15,6 C 15,0 C 52 % 1010,1 hPa 0,0 l/m 0 min 0 min 358 W/m 12,9 km/h (3 Bft) 95,74 %
03.05.2019 15:16 14,4 C 16,1 C 15,0 C 52 % 1010,0 hPa 0,0 l/m 0 min 0 min 334 W/m 9,7 km/h (2 Bft) 95,74 %
03.05.2019 15:18 14,4 C 15,6 C 15,0 C 53 % 1010,1 hPa 0,0 l/m 0 min 0 min 327 W/m 16,1 km/h (3 Bft) 97,62 %
03.05.2019 15:20 14,3 C 15,0 C 15,0 C 52 % 1010,1 hPa 0,0 l/m 0 min 0 min 314 W/m 22,5 km/h (4 Bft) 97,96 %
03.05.2019 15:22 14,2 C 15,0 C 15,0 C 51 % 1010,1 hPa 0,0 l/m 0 min 0 min 314 W/m 16,1 km/h (3 Bft) 95,92 %
03.05.2019 15:24 14,2 C 15,0 C 15,0 C 52 % 1010,1 hPa 0,0 l/m 0 min 0 min 311 W/m 9,7 km/h (2 Bft) 95,74 %
03.05.2019 15:26 14,2 C 15,0 C 15,0 C 53 % 1010,0 hPa 0,0 l/m 0 min 0 min 318 W/m 16,1 km/h (3 Bft) 95,74 %
03.05.2019 15:28 14,2 C 15,6 C 15,0 C 53 % 1010,1 hPa 0,0 l/m 0 min 0 min 351 W/m 12,9 km/h (3 Bft) 93,62 %
03.05.2019 15:30 14,2 C 15,6 C 15,0 C 52 % 1010,0 hPa 0,0 l/m 0 min 0 min 338 W/m 19,3 km/h (3 Bft) 92,86 %
03.05.2019 15:32 14,2 C 15,0 C 15,0 C 52 % 1010,0 hPa 0,0 l/m 0 min 0 min 327 W/m 16,1 km/h (3 Bft) 94,00 %
03.05.2019 15:34 14,2 C 15,0 C 15,0 C 53 % 1010,0 hPa 0,0 l/m 0 min 0 min 323 W/m 12,9 km/h (3 Bft) 93,62 %
03.05.2019 15:36 14,2 C 15,6 C 15,0 C 53 % 1010,0 hPa 0,0 l/m 0 min 0 min 297 W/m 19,3 km/h (3 Bft) 95,92 %
03.05.2019 15:38 14,0 C 14,4 C 14,4 C 53 % 1010,1 hPa 0,0 l/m 0 min 0 min 267 W/m 19,3 km/h (3 Bft) 91,49 %
03.05.2019 15:40 14,0 C 14,4 C 14,4 C 54 % 1010,1 hPa 0,0 l/m 0 min 0 min 252 W/m 19,3 km/h (3 Bft) 91,49 %
03.05.2019 15:42 13,9 C 13,9 C 13,9 C 53 % 1010,0 hPa 0,0 l/m 0 min 0 min 240 W/m 19,3 km/h (3 Bft) 93,62 %
03.05.2019 15:44 13,8 C 14,4 C 13,9 C 54 % 1010,0 hPa 0,0 l/m 0 min 0 min 242 W/m 9,7 km/h (2 Bft) 92,86 %
03.05.2019 15:46 13,8 C 14,4 C 13,9 C 54 % 1010,0 hPa 0,0 l/m 0 min 0 min 296 W/m 19,3 km/h (3 Bft) 93,88 %
03.05.2019 15:48 13,8 C 14,4 C 14,4 C 54 % 1010,0 hPa 0,0 l/m 0 min 0 min 345 W/m 12,9 km/h (3 Bft) 93,88 %
03.05.2019 15:50 13,8 C 14,4 C 14,4 C 54 % 1010,0 hPa 0,0 l/m 0 min 0 min 292 W/m 25,7 km/h (4 Bft) 93,62 %
03.05.2019 15:52 13,8 C 15,0 C 14,4 C 55 % 1010,0 hPa 0,0 l/m 0 min 0 min 275 W/m 16,1 km/h (3 Bft) 93,62 %
03.05.2019 15:54 13,8 C 14,4 C 14,4 C 55 % 1010,0 hPa 0,0 l/m 0 min 0 min 272 W/m 9,7 km/h (2 Bft) 92,68 %
03.05.2019 15:56 13,8 C 14,4 C 13,9 C 55 % 1010,0 hPa 0,0 l/m 0 min 0 min 265 W/m 12,9 km/h (3 Bft) 91,84 %
03.05.2019 15:58 13,7 C 14,4 C 13,9 C 55 % 1010,0 hPa 0,0 l/m 0 min 0 min 259 W/m 19,3 km/h (3 Bft) 94,00 %
03.05.2019 16:00 13,7 C 14,4 C 13,9 C 55 % 1009,9 hPa 0,0 l/m 0 min 0 min 253 W/m 16,1 km/h (3 Bft) 93,62 %
03.05.2019 16:02 13,7 C 13,9 C 13,9 C 54 % 1009,9 hPa 0,0 l/m 0 min 0 min 227 W/m 12,9 km/h (3 Bft) 93,75 %
03.05.2019 16:04 13,6 C 13,9 C 13,3 C 54 % 1009,9 hPa 0,0 l/m 0 min 0 min 186 W/m 22,5 km/h (4 Bft) 95,74 %
03.05.2019 16:06 13,5 C 13,3 C 13,3 C 54 % 1009,9 hPa 0,0 l/m 0 min 0 min 195 W/m 19,3 km/h (3 Bft) 95,74 %
03.05.2019 16:08 13,4 C 13,3 C 13,3 C 54 % 1009,9 hPa 0,0 l/m 0 min 0 min 225 W/m 16,1 km/h (3 Bft) 95,12 %
03.05.2019 16:10 13,4 C 13,3 C 13,3 C 56 % 1009,9 hPa 0,0 l/m 0 min 0 min 249 W/m 9,7 km/h (2 Bft) 93,88 %
03.05.2019 16:12 13,4 C 13,3 C 13,3 C 56 % 1009,9 hPa 0,0 l/m 0 min 0 min 261 W/m 12,9 km/h (3 Bft) 96,00 %
03.05.2019 16:14 13,3 C 13,9 C 13,9 C 56 % 1009,9 hPa 0,0 l/m 0 min 0 min 262 W/m 9,7 km/h (2 Bft) 95,74 %
03.05.2019 16:16 13,3 C 13,9 C 13,3 C 56 % 1009,9 hPa 0,0 l/m 0 min 0 min 230 W/m 12,9 km/h (3 Bft) 97,87 %
03.05.2019 16:18 13,3 C 13,3 C 13,3 C 56 % 1009,9 hPa 0,0 l/m 0 min 0 min 201 W/m 22,5 km/h (4 Bft) 95,74 %
03.05.2019 16:20 13,3 C 13,3 C 13,3 C 56 % 1009,8 hPa 0,0 l/m 0 min 0 min 194 W/m 12,9 km/h (3 Bft) 97,62 %
03.05.2019 16:22 13,2 C 13,3 C 13,3 C 57 % 1009,9 hPa 0,0 l/m 0 min 0 min 212 W/m 9,7 km/h (2 Bft) 95,92 %
03.05.2019 16:24 13,2 C 13,3 C 13,3 C 58 % 1009,8 hPa 0,0 l/m 0 min 0 min 246 W/m 16,1 km/h (3 Bft) 97,96 %
03.05.2019 16:26 13,2 C 13,3 C 13,3 C 57 % 1009,9 hPa 0,0 l/m 0 min 0 min 252 W/m 22,5 km/h (4 Bft) 97,87 %
03.05.2019 16:28 13,2 C 13,3 C 13,3 C 56 % 1009,9 hPa 0,0 l/m 0 min 2 min 230 W/m 19,3 km/h (3 Bft) 95,74 %
03.05.2019 16:30 13,1 C 13,3 C 12,8 C 57 % 1009,9 hPa 0,0 l/m 0 min 0 min 202 W/m 25,7 km/h (4 Bft) 97,83 %
03.05.2019 16:32 13,0 C 12,8 C 12,8 C 57 % 1009,9 hPa 0,0 l/m 0 min 0 min 193 W/m 16,1 km/h (3 Bft) 97,73 %
03.05.2019 16:34 13,0 C 12,8 C 12,8 C 57 % 1009,9 hPa 0,0 l/m 0 min 0 min 202 W/m 22,5 km/h (4 Bft) 97,96 %
03.05.2019 16:36 12,9 C 12,8 C 12,8 C 57 % 1009,9 hPa 0,0 l/m 0 min 0 min 203 W/m 22,5 km/h (4 Bft) 97,92 %
03.05.2019 16:38 12,9 C 12,8 C 12,8 C 57 % 1009,8 hPa 0,0 l/m 0 min 0 min 214 W/m 22,5 km/h (4 Bft) 97,87 %
03.05.2019 16:40 12,8 C 12,8 C 12,8 C 57 % 1009,9 hPa 0,0 l/m 0 min 0 min 258 W/m 22,5 km/h (4 Bft) 97,87 %
03.05.2019 16:42 12,8 C 13,3 C 13,3 C 58 % 1009,8 hPa 0,0 l/m 0 min 2 min 262 W/m 22,5 km/h (4 Bft) 100,00 %
03.05.2019 16:44 12,8 C 13,3 C 13,3 C 58 % 1009,9 hPa 0,0 l/m 0 min 0 min 242 W/m 16,1 km/h (3 Bft) 100,00 %
03.05.2019 16:46 12,8 C 13,3 C 13,3 C 58 % 1009,8 hPa 0,0 l/m 0 min 0 min 226 W/m 12,9 km/h (3 Bft) 100,00 %
03.05.2019 16:48 12,8 C 13,3 C 12,8 C 58 % 1009,9 hPa 0,0 l/m 0 min 0 min 234 W/m 12,9 km/h (3 Bft) 100,00 %
03.05.2019 16:50 12,8 C 13,3 C 13,3 C 58 % 1009,9 hPa 0,0 l/m 0 min 0 min 245 W/m 12,9 km/h (3 Bft) 100,00 %
03.05.2019 16:52 12,8 C 13,3 C 13,3 C 59 % 1009,9 hPa 0,0 l/m 0 min 0 min 234 W/m 12,9 km/h (3 Bft) 100,00 %
03.05.2019 16:54 12,8 C 13,3 C 12,8 C 59 % 1009,9 hPa 0,0 l/m 0 min 0 min 216 W/m 16,1 km/h (3 Bft) 97,56 %
03.05.2019 16:56 12,7 C 13,3 C 12,8 C 59 % 1009,9 hPa 0,0 l/m 0 min 0 min 202 W/m 19,3 km/h (3 Bft) 97,96 %
03.05.2019 16:58 12,7 C 12,8 C 12,8 C 59 % 1009,9 hPa 0,0 l/m 0 min 0 min 186 W/m 22,5 km/h (4 Bft) 100,00 %
03.05.2019 17:00 12,7 C 12,8 C 12,8 C 59 % 1009,9 hPa 0,0 l/m 0 min 0 min 183 W/m 12,9 km/h (3 Bft) 97,83 %
03.05.2019 17:02 12,7 C 12,8 C 12,8 C 60 % 1009,9 hPa 0,0 l/m 0 min 0 min 185 W/m 16,1 km/h (3 Bft) 97,92 %
03.05.2019 17:04 12,6 C 12,2 C 12,8 C 58 % 1009,9 hPa 0,0 l/m 0 min 0 min 184 W/m 22,5 km/h (4 Bft) 100,00 %
03.05.2019 17:06 12,6 C 12,2 C 12,2 C 58 % 1009,8 hPa 0,0 l/m 0 min 0 min 183 W/m 12,9 km/h (3 Bft) 100,00 %
03.05.2019 17:08 12,5 C 12,2 C 12,2 C 58 % 1009,8 hPa 0,0 l/m 0 min 0 min 180 W/m 16,1 km/h (3 Bft) 100,00 %
03.05.2019 17:10 12,4 C 12,2 C 12,2 C 58 % 1009,8 hPa 0,0 l/m 0 min 0 min 179 W/m 12,9 km/h (3 Bft) 100,00 %
03.05.2019 17:12 12,4 C 12,2 C 12,2 C 59 % 1009,8 hPa 0,0 l/m 0 min 0 min 188 W/m 22,5 km/h (4 Bft) 100,00 %
03.05.2019 17:14 12,4 C 12,2 C 12,2 C 60 % 1009,8 hPa 0,0 l/m 0 min 0 min 195 W/m 16,1 km/h (3 Bft) 100,00 %
03.05.2019 17:16 12,3 C 12,2 C 12,2 C 60 % 1009,8 hPa 0,0 l/m 0 min 0 min 202 W/m 16,1 km/h (3 Bft) 100,00 %
03.05.2019 17:18 12,3 C 12,2 C 12,8 C 61 % 1009,8 hPa 0,0 l/m 0 min 0 min 209 W/m 16,1 km/h (3 Bft) 100,00 %
03.05.2019 17:20 12,3 C 12,2 C 12,2 C 61 % 1009,8 hPa 0,0 l/m 0 min 0 min 206 W/m 16,1 km/h (3 Bft) 100,00 %
03.05.2019 17:22 12,3 C 12,2 C 12,2 C 61 % 1009,8 hPa 0,0 l/m 0 min 0 min 190 W/m 12,9 km/h (3 Bft) 97,96 %
03.05.2019 17:24 12,3 C 12,2 C 12,2 C 61 % 1009,8 hPa 0,0 l/m 0 min 0 min 181 W/m 9,7 km/h (2 Bft) 100,00 %
03.05.2019 17:26 12,2 C 12,2 C 12,2 C 62 % 1009,8 hPa 0,0 l/m 0 min 0 min 158 W/m 9,7 km/h (2 Bft) 100,00 %
03.05.2019 17:28 12,2 C 12,2 C 12,2 C 63 % 1009,7 hPa 0,0 l/m 0 min 0 min 127 W/m 16,1 km/h (3 Bft) 100,00 %
03.05.2019 17:30 12,2 C 11,7 C 11,7 C 62 % 1009,8 hPa 0,0 l/m 0 min 0 min 114 W/m 16,1 km/h (3 Bft) 100,00 %
03.05.2019 17:32 12,2 C 11,7 C 11,7 C 63 % 1009,8 hPa 0,0 l/m 0 min 0 min 113 W/m 16,1 km/h (3 Bft) 97,73 %
03.05.2019 17:34 12,1 C 11,7 C 11,7 C 63 % 1009,8 hPa 0,0 l/m 0 min 0 min 106 W/m 12,9 km/h (3 Bft) 100,00 %
03.05.2019 17:36 12,1 C 11,7 C 11,7 C 63 % 1009,9 hPa 0,0 l/m 0 min 0 min 102 W/m 16,1 km/h (3 Bft) 100,00 %
03.05.2019 17:38 11,9 C 11,7 C 11,7 C 64 % 1009,8 hPa 0,0 l/m 0 min 0 min 115 W/m 16,1 km/h (3 Bft) 100,00 %
03.05.2019 17:40 11,9 C 11,1 C 11,7 C 63 % 1009,8 hPa 0,0 l/m 0 min 0 min 131 W/m 12,9 km/h (3 Bft) 97,83 %
03.05.2019 17:42 11,8 C 11,1 C 11,7 C 63 % 1009,8 hPa 0,0 l/m 0 min 2 min 137 W/m 12,9 km/h (3 Bft) 100,00 %
03.05.2019 17:44 11,8 C 11,1 C 11,7 C 64 % 1009,7 hPa 0,0 l/m 0 min 0 min 138 W/m 16,1 km/h (3 Bft) 100,00 %
03.05.2019 17:46 11,8 C 11,1 C 11,1 C 64 % 1009,7 hPa 0,0 l/m 0 min 2 min 141 W/m 12,9 km/h (3 Bft) 100,00 %
03.05.2019 17:48 11,7 C 11,1 C 11,1 C 63 % 1009,7 hPa 0,0 l/m 0 min 0 min 147 W/m 12,9 km/h (3 Bft) 100,00 %
03.05.2019 17:50 11,7 C 11,1 C 11,1 C 64 % 1009,7 hPa 0,0 l/m 0 min 0 min 141 W/m 16,1 km/h (3 Bft) 100,00 %
03.05.2019 17:52 11,6 C 11,7 C 11,1 C 65 % 1009,7 hPa 0,0 l/m 0 min 0 min 140 W/m 9,7 km/h (2 Bft) 97,83 %
03.05.2019 17:54 11,6 C 11,7 C 11,7 C 65 % 1009,8 hPa 0,0 l/m 0 min 0 min 145 W/m 9,7 km/h (2 Bft) 100,00 %
03.05.2019 17:56 11,6 C 11,7 C 11,7 C 66 % 1009,7 hPa 0,0 l/m 0 min 2 min 125 W/m 12,9 km/h (3 Bft) 100,00 %
03.05.2019 17:58 11,6 C 11,7 C 11,1 C 66 % 1009,7 hPa 0,0 l/m 0 min 0 min 113 W/m 16,1 km/h (3 Bft) 100,00 %
03.05.2019 18:00 11,6 C 11,7 C 11,1 C 66 % 1009,7 hPa 0,0 l/m 0 min 2 min 113 W/m 12,9 km/h (3 Bft) 100,00 %
03.05.2019 18:02 11,6 C 11,1 C 11,1 C 66 % 1009,7 hPa 0,0 l/m 0 min 0 min 127 W/m 12,9 km/h (3 Bft) 97,22 %
03.05.2019 18:04 11,6 C 11,1 C 11,1 C 66 % 1009,6 hPa 0,0 l/m 0 min 2 min 161 W/m 9,7 km/h (2 Bft) 100,00 %
03.05.2019 18:07 11,6 C 11,7 C 11,7 C 67 % 1009,6 hPa 0,0 l/m 3 min 0 min 216 W/m 12,9 km/h (3 Bft) 100,00 %
03.05.2019 18:08 11,6 C 11,7 C 11,7 C 67 % 1009,6 hPa 0,0 l/m 1 min 0 min 215 W/m 9,7 km/h (2 Bft) 100,00 %
03.05.2019 18:10 11,6 C 11,7 C 11,7 C 67 % 1009,7 hPa 0,0 l/m 0 min 0 min 192 W/m 9,7 km/h (2 Bft) 100,00 %
03.05.2019 18:12 11,5 C 11,1 C 11,7 C 66 % 1009,7 hPa 0,0 l/m 0 min 0 min 163 W/m 12,9 km/h (3 Bft) 100,00 %
03.05.2019 18:14 11,5 C 11,7 C 11,7 C 67 % 1009,7 hPa 0,0 l/m 0 min 0 min 150 W/m 9,7 km/h (2 Bft) 97,87 %
03.05.2019 18:16 11,5 C 11,1 C 11,1 C 67 % 1009,7 hPa 0,0 l/m 0 min 0 min 159 W/m 16,1 km/h (3 Bft) 97,87 %
03.05.2019 18:18 11,4 C 11,1 C 11,1 C 66 % 1009,6 hPa 0,0 l/m 0 min 0 min 171 W/m 12,9 km/h (3 Bft) 97,56 %
03.05.2019 18:20 11,4 C 11,1 C 11,1 C 67 % 1009,7 hPa 0,0 l/m 0 min 0 min 178 W/m 16,1 km/h (3 Bft) 95,92 %
03.05.2019 18:22 11,4 C 11,1 C 11,7 C 67 % 1009,6 hPa 0,0 l/m 0 min 2 min 187 W/m 9,7 km/h (2 Bft) 93,88 %
03.05.2019 18:24 11,4 C 11,1 C 11,1 C 67 % 1009,6 hPa 0,0 l/m 2 min 0 min 201 W/m 19,3 km/h (3 Bft) 97,92 %
03.05.2019 18:26 11,3 C 11,1 C 11,1 C 67 % 1009,7 hPa 0,0 l/m 2 min 0 min 197 W/m 9,7 km/h (2 Bft) 97,87 %
03.05.2019 18:28 11,3 C 11,1 C 11,1 C 67 % 1009,7 hPa 0,0 l/m 2 min 0 min 183 W/m 9,7 km/h (2 Bft) 97,87 %
03.05.2019 18:30 11,3 C 11,1 C 11,1 C 68 % 1009,6 hPa 0,0 l/m 0 min 0 min 179 W/m 9,7 km/h (2 Bft) 97,56 %
03.05.2019 18:32 11,3 C 11,1 C 11,1 C 68 % 1009,7 hPa 0,0 l/m 2 min 0 min 181 W/m 12,9 km/h (3 Bft) 96,00 %
03.05.2019 18:34 11,3 C 11,1 C 11,1 C 68 % 1009,6 hPa 0,0 l/m 2 min 0 min 192 W/m 9,7 km/h (2 Bft) 95,92 %
03.05.2019 18:36 11,3 C 11,1 C 11,1 C 69 % 1009,6 hPa 0,0 l/m 2 min 0 min 191 W/m 12,9 km/h (3 Bft) 95,00 %
03.05.2019 18:38 11,3 C 11,1 C 11,1 C 69 % 1009,6 hPa 0,0 l/m 2 min 0 min 213 W/m 12,9 km/h (3 Bft) 94,29 %
03.05.2019 18:40 11,3 C 11,7 C 11,1 C 69 % 1009,6 hPa 0,0 l/m 2 min 0 min 183 W/m 16,1 km/h (3 Bft) 95,74 %
03.05.2019 18:42 11,3 C 11,1 C 11,1 C 69 % 1009,5 hPa 0,0 l/m 0 min 0 min 150 W/m 12,9 km/h (3 Bft) 95,12 %
03.05.2019 18:44 11,3 C 11,1 C 11,1 C 69 % 1009,5 hPa 0,0 l/m 0 min 0 min 124 W/m 9,7 km/h (2 Bft) 95,92 %
03.05.2019 18:46 11,3 C 11,1 C 11,1 C 69 % 1009,4 hPa 0,0 l/m 0 min 0 min 113 W/m 12,9 km/h (3 Bft) 95,92 %
03.05.2019 18:48 11,3 C 11,1 C 10,6 C 69 % 1009,4 hPa 0,0 l/m 0 min 0 min 112 W/m 12,9 km/h (3 Bft) 95,83 %
03.05.2019 18:50 11,3 C 11,1 C 10,6 C 69 % 1009,5 hPa 0,0 l/m 0 min 0 min 110 W/m 9,7 km/h (2 Bft) 95,74 %
03.05.2019 18:52 11,3 C 10,6 C 10,6 C 70 % 1009,4 hPa 0,0 l/m 0 min 0 min 98 W/m 9,7 km/h (2 Bft) 93,62 %
03.05.2019 18:54 11,2 C 10,6 C 10,6 C 70 % 1009,5 hPa 0,0 l/m 0 min 0 min 89 W/m 12,9 km/h (3 Bft) 95,12 %
03.05.2019 18:56 11,2 C 10,6 C 10,6 C 70 % 1009,5 hPa 0,0 l/m 0 min 0 min 82 W/m 12,9 km/h (3 Bft) 95,92 %
03.05.2019 18:58 11,2 C 10,6 C 10,6 C 70 % 1009,5 hPa 0,0 l/m 0 min 0 min 81 W/m 9,7 km/h (2 Bft) 96,00 %
03.05.2019 19:00 11,1 C 10,6 C 10,6 C 70 % 1009,4 hPa 0,0 l/m 0 min 0 min 82 W/m 12,9 km/h (3 Bft) 97,83 %
03.05.2019 19:02 11,1 C 10,6 C 10,6 C 70 % 1009,4 hPa 0,0 l/m 0 min 0 min 79 W/m 16,1 km/h (3 Bft) 95,83 %
03.05.2019 19:04 11,0 C 10,6 C 10,6 C 70 % 1009,5 hPa 0,0 l/m 0 min 0 min 73 W/m 12,9 km/h (3 Bft) 95,74 %
03.05.2019 19:06 10,9 C 10,0 C 10,0 C 70 % 1009,5 hPa 0,0 l/m 0 min 0 min 71 W/m 9,7 km/h (2 Bft) 94,83 %
03.05.2019 19:08 10,9 C 10,0 C 10,0 C 70 % 1009,4 hPa 0,0 l/m 0 min 0 min 73 W/m 9,7 km/h (2 Bft) 100,00 %
03.05.2019 19:10 10,9 C 10,0 C 10,0 C 70 % 1009,4 hPa 0,0 l/m 0 min 0 min 75 W/m 19,3 km/h (3 Bft) 97,62 %
03.05.2019 19:12 10,8 C 10,0 C 10,0 C 70 % 1009,4 hPa 0,0 l/m 0 min 0 min 76 W/m 9,7 km/h (2 Bft) 95,92 %
03.05.2019 19:14 10,8 C 10,0 C 10,0 C 70 % 1009,4 hPa 0,0 l/m 0 min 0 min 76 W/m 12,9 km/h (3 Bft) 95,83 %
03.05.2019 19:16 10,7 C 10,0 C 10,0 C 70 % 1009,4 hPa 0,0 l/m 0 min 0 min 76 W/m 9,7 km/h (2 Bft) 95,92 %
03.05.2019 19:18 10,7 C 10,0 C 10,0 C 70 % 1009,4 hPa 0,0 l/m 0 min 0 min 72 W/m 12,9 km/h (3 Bft) 95,65 %
03.05.2019 19:20 10,7 C 10,0 C 10,0 C 70 % 1009,4 hPa 0,0 l/m 0 min 0 min 66 W/m 12,9 km/h (3 Bft) 95,74 %
03.05.2019 19:22 10,6 C 10,0 C 10,0 C 70 % 1009,4 hPa 0,0 l/m 0 min 0 min 62 W/m 16,1 km/h (3 Bft) 95,24 %
03.05.2019 19:24 10,6 C 10,0 C 10,0 C 70 % 1009,4 hPa 0,0 l/m 0 min 0 min 56 W/m 19,3 km/h (3 Bft) 93,88 %
03.05.2019 19:26 10,6 C 10,0 C 10,0 C 70 % 1009,4 hPa 0,0 l/m 0 min 0 min 51 W/m 12,9 km/h (3 Bft) 95,83 %
03.05.2019 19:28 10,5 C 10,0 C 10,0 C 71 % 1009,4 hPa 0,0 l/m 0 min 0 min 48 W/m 9,7 km/h (2 Bft) 95,92 %
03.05.2019 19:30 10,4 C 9,4 C 10,0 C 71 % 1009,4 hPa 0,0 l/m 0 min 0 min 45 W/m 16,1 km/h (3 Bft) 95,65 %
03.05.2019 19:32 10,4 C 9,4 C 9,4 C 71 % 1009,4 hPa 0,0 l/m 0 min 0 min 39 W/m 16,1 km/h (3 Bft) 95,83 %
03.05.2019 19:34 10,4 C 9,4 C 10,0 C 71 % 1009,4 hPa 0,0 l/m 0 min 0 min 35 W/m 9,7 km/h (2 Bft) 97,62 %
03.05.2019 19:36 10,3 C 9,4 C 9,4 C 71 % 1009,4 hPa 0,0 l/m 0 min 0 min 32 W/m 9,7 km/h (2 Bft) 96,67 %
03.05.2019 19:38 10,3 C 9,4 C 9,4 C 72 % 1009,3 hPa 0,0 l/m 0 min 0 min 31 W/m 9,7 km/h (2 Bft) 97,30 %
03.05.2019 19:40 10,3 C 9,4 C 9,4 C 72 % 1009,3 hPa 0,0 l/m 0 min 0 min 30 W/m 9,7 km/h (2 Bft) 97,96 %
03.05.2019 19:42 10,3 C 9,4 C 9,4 C 72 % 1009,3 hPa 0,0 l/m 0 min 0 min 30 W/m 12,9 km/h (3 Bft) 97,83 %
03.05.2019 19:44 10,3 C 9,4 C 9,4 C 72 % 1009,3 hPa 0,0 l/m 0 min 0 min 27 W/m 9,7 km/h (2 Bft) 95,74 %
03.05.2019 19:46 10,2 C 9,4 C 9,4 C 72 % 1009,3 hPa 0,0 l/m 0 min 0 min 23 W/m 12,9 km/h (3 Bft) 97,62 %
03.05.2019 19:48 10,2 C 9,4 C 9,4 C 72 % 1009,3 hPa 0,0 l/m 0 min 0 min 21 W/m 9,7 km/h (2 Bft) 93,75 %
03.05.2019 19:50 10,2 C 9,4 C 9,4 C 72 % 1009,3 hPa 0,0 l/m 0 min 0 min 17 W/m 9,7 km/h (2 Bft) 97,96 %
03.05.2019 19:52 10,2 C 9,4 C 9,4 C 72 % 1009,4 hPa 0,0 l/m 0 min 0 min 15 W/m 12,9 km/h (3 Bft) 97,92 %
03.05.2019 19:54 10,1 C 9,4 C 9,4 C 72 % 1009,3 hPa 0,0 l/m 0 min 0 min 14 W/m 12,9 km/h (3 Bft) 95,74 %
03.05.2019 19:56 10,1 C 8,9 C 9,4 C 72 % 1009,3 hPa 0,0 l/m 0 min 0 min 14 W/m 9,7 km/h (2 Bft) 97,87 %
03.05.2019 19:58 10,1 C 8,9 C 9,4 C 72 % 1009,3 hPa 0,0 l/m 0 min 0 min 14 W/m 9,7 km/h (2 Bft) 95,35 %
03.05.2019 20:00 10,1 C 9,4 C 9,4 C 72 % 1009,3 hPa 0,0 l/m 0 min 0 min 16 W/m 12,9 km/h (3 Bft) 97,83 %
03.05.2019 20:02 10,0 C 8,9 C 8,9 C 72 % 1009,3 hPa 0,0 l/m 0 min 2 min 17 W/m 9,7 km/h (2 Bft) 96,00 %
03.05.2019 20:04 10,0 C 8,9 C 8,9 C 72 % 1009,3 hPa 0,0 l/m 0 min 2 min 19 W/m 12,9 km/h (3 Bft) 95,74 %
03.05.2019 20:06 10,0 C 8,9 C 8,9 C 72 % 1009,3 hPa 0,0 l/m 0 min 0 min 19 W/m 12,9 km/h (3 Bft) 98,33 %
03.05.2019 20:08 9,9 C 8,9 C 8,9 C 73 % 1009,3 hPa 0,0 l/m 0 min 0 min 19 W/m 6,4 km/h (2 Bft) 97,14 %
03.05.2019 20:10 9,9 C 8,9 C 8,9 C 73 % 1009,4 hPa 0,0 l/m 0 min 2 min 21 W/m 12,9 km/h (3 Bft) 100,00 %
03.05.2019 20:12 9,9 C 8,9 C 8,9 C 73 % 1009,3 hPa 0,0 l/m 0 min 0 min 23 W/m 9,7 km/h (2 Bft) 100,00 %
03.05.2019 20:14 9,9 C 8,9 C 8,9 C 73 % 1009,4 hPa 0,0 l/m 0 min 0 min 23 W/m 16,1 km/h (3 Bft) 100,00 %
03.05.2019 20:16 9,9 C 8,9 C 8,9 C 73 % 1009,4 hPa 0,0 l/m 0 min 0 min 23 W/m 12,9 km/h (3 Bft) 100,00 %
03.05.2019 20:18 9,8 C 8,9 C 8,9 C 73 % 1009,3 hPa 0,0 l/m 0 min 0 min 25 W/m 9,7 km/h (2 Bft) 100,00 %
03.05.2019 20:20 9,8 C 8,9 C 8,9 C 73 % 1009,3 hPa 0,0 l/m 0 min 0 min 23 W/m 12,9 km/h (3 Bft) 100,00 %
03.05.2019 20:22 9,8 C 8,9 C 8,9 C 73 % 1009,2 hPa 0,0 l/m 0 min 0 min 24 W/m 9,7 km/h (2 Bft) 100,00 %
03.05.2019 20:24 9,8 C 8,9 C 8,9 C 73 % 1009,3 hPa 0,0 l/m 0 min 0 min 22 W/m 12,9 km/h (3 Bft) 100,00 %
03.05.2019 20:26 9,7 C 8,9 C 8,9 C 74 % 1009,3 hPa 0,0 l/m 0 min 0 min 19 W/m 9,7 km/h (2 Bft) 100,00 %
03.05.2019 20:28 9,7 C 8,9 C 8,9 C 74 % 1009,2 hPa 0,0 l/m 0 min 0 min 18 W/m 9,7 km/h (2 Bft) 100,00 %
03.05.2019 20:30 9,7 C 8,9 C 8,9 C 74 % 1009,2 hPa 0,0 l/m 0 min 0 min 16 W/m 9,7 km/h (2 Bft) 100,00 %
03.05.2019 20:32 9,7 C 8,9 C 8,9 C 74 % 1009,2 hPa 0,0 l/m 0 min 0 min 17 W/m 9,7 km/h (2 Bft) 100,00 %
03.05.2019 20:34 9,7 C 8,9 C 8,9 C 74 % 1009,2 hPa 0,0 l/m 0 min 0 min 20 W/m 12,9 km/h (3 Bft) 97,87 %
03.05.2019 20:36 9,7 C 8,9 C 8,9 C 74 % 1009,2 hPa 0,0 l/m 0 min 0 min 21 W/m 6,4 km/h (2 Bft) 100,00 %
03.05.2019 20:38 9,7 C 8,9 C 8,9 C 74 % 1009,1 hPa 0,0 l/m 0 min 0 min 19 W/m 6,4 km/h (2 Bft) 100,00 %
03.05.2019 20:40 9,7 C 8,3 C 8,9 C 75 % 1009,2 hPa 0,0 l/m 0 min 0 min 18 W/m 9,7 km/h (2 Bft) 100,00 %
03.05.2019 20:42 9,6 C 8,3 C 8,9 C 75 % 1009,2 hPa 0,0 l/m 0 min 0 min 17 W/m 6,4 km/h (2 Bft) 100,00 %
03.05.2019 20:44 9,6 C 8,3 C 8,9 C 75 % 1009,2 hPa 0,0 l/m 0 min 0 min 15 W/m 9,7 km/h (2 Bft) 100,00 %
03.05.2019 20:46 9,6 C 8,3 C 8,9 C 75 % 1009,2 hPa 0,0 l/m 0 min 0 min 12 W/m 12,9 km/h (3 Bft) 100,00 %
03.05.2019 20:48 9,6 C 8,3 C 8,3 C 75 % 1009,2 hPa 0,0 l/m 0 min 0 min 11 W/m 6,4 km/h (2 Bft) 100,00 %
03.05.2019 20:50 9,5 C 8,3 C 8,3 C 75 % 1009,2 hPa 0,0 l/m 0 min 0 min 9 W/m 12,9 km/h (3 Bft) 100,00 %
03.05.2019 20:52 9,5 C 8,3 C 8,3 C 75 % 1009,2 hPa 0,0 l/m 0 min 0 min 7 W/m 9,7 km/h (2 Bft) 100,00 %
03.05.2019 20:54 9,4 C 8,3 C 8,3 C 75 % 1009,2 hPa 0,0 l/m 0 min 0 min 5 W/m 12,9 km/h (3 Bft) 100,00 %
03.05.2019 20:56 9,4 C 8,3 C 8,3 C 75 % 1009,2 hPa 0,0 l/m 0 min 0 min 5 W/m 9,7 km/h (2 Bft) 100,00 %
03.05.2019 20:58 9,4 C 8,3 C 8,3 C 75 % 1009,1 hPa 0,0 l/m 0 min 0 min 1 W/m 12,9 km/h (3 Bft) 100,00 %
03.05.2019 21:00 9,4 C 8,3 C 8,3 C 75 % 1009,2 hPa 0,0 l/m 0 min 0 min 0 W/m 6,4 km/h (2 Bft) 100,00 %
03.05.2019 21:02 9,4 C 8,3 C 8,3 C 76 % 1009,2 hPa 0,0 l/m 0 min 0 min 0 W/m 9,7 km/h (2 Bft) 100,00 %
03.05.2019 21:04 9,3 C 8,3 C 8,3 C 76 % 1009,2 hPa 0,0 l/m 0 min 0 min 0 W/m 9,7 km/h (2 Bft) 100,00 %
03.05.2019 21:06 9,3 C 8,3 C 8,3 C 76 % 1009,2 hPa 0,0 l/m 0 min 0 min 0 W/m 6,4 km/h (2 Bft) 100,00 %
03.05.2019 21:08 9,3 C 8,3 C 8,3 C 76 % 1009,2 hPa 0,0 l/m 0 min 0 min 0 W/m 6,4 km/h (2 Bft) 100,00 %
03.05.2019 21:10 9,3 C 8,3 C 8,3 C 76 % 1009,2 hPa 0,0 l/m 0 min 0 min 0 W/m 6,4 km/h (2 Bft) 95,74 %
03.05.2019 21:12 9,3 C 8,3 C 8,3 C 76 % 1009,2 hPa 0,0 l/m 0 min 0 min 0 W/m 9,7 km/h (2 Bft) 97,87 %
03.05.2019 21:14 9,3 C 8,3 C 8,3 C 76 % 1009,2 hPa 0,0 l/m 0 min 0 min 0 W/m 12,9 km/h (3 Bft) 97,62 %
03.05.2019 21:16 9,3 C 8,3 C 8,3 C 76 % 1009,2 hPa 0,0 l/m 0 min 0 min 0 W/m 3,2 km/h (1 Bft) 97,96 %
03.05.2019 21:18 9,3 C 8,3 C 8,3 C 76 % 1009,2 hPa 0,0 l/m 0 min 0 min 0 W/m 6,4 km/h (2 Bft) 97,96 %
03.05.2019 21:20 9,2 C 8,3 C 8,3 C 77 % 1009,2 hPa 0,0 l/m 0 min 0 min 0 W/m 9,7 km/h (2 Bft) 95,74 %
03.05.2019 21:22 9,2 C 8,3 C 8,3 C 77 % 1009,2 hPa 0,0 l/m 0 min 0 min 0 W/m 6,4 km/h (2 Bft) 97,87 %
03.05.2019 21:24 9,2 C 8,3 C 8,3 C 77 % 1009,2 hPa 0,0 l/m 0 min 0 min 0 W/m 6,4 km/h (2 Bft) 97,87 %
03.05.2019 21:26 9,2 C 8,3 C 8,3 C 77 % 1009,3 hPa 0,0 l/m 0 min 0 min 0 W/m 6,4 km/h (2 Bft) 97,62 %
03.05.2019 21:28 9,2 C 8,3 C 8,3 C 77 % 1009,2 hPa 0,0 l/m 0 min 0 min 0 W/m 6,4 km/h (2 Bft) 93,88 %
03.05.2019 21:30 9,2 C 8,3 C 8,3 C 77 % 1009,2 hPa 0,0 l/m 0 min 0 min 0 W/m 9,7 km/h (2 Bft) 97,96 %
03.05.2019 21:32 9,2 C 8,3 C 8,3 C 77 % 1009,2 hPa 0,0 l/m 0 min 0 min 0 W/m 9,7 km/h (2 Bft) 97,92 %
03.05.2019 21:34 9,2 C 8,3 C 8,3 C 77 % 1009,2 hPa 0,0 l/m 0 min 0 min 0 W/m 6,4 km/h (2 Bft) 97,87 %
03.05.2019 21:36 9,1 C 8,3 C 8,3 C 77 % 1009,1 hPa 0,0 l/m 0 min 0 min 0 W/m 9,7 km/h (2 Bft) 97,83 %
03.05.2019 21:38 9,1 C 8,3 C 8,3 C 77 % 1009,1 hPa 0,0 l/m 0 min 0 min 0 W/m 12,9 km/h (3 Bft) 97,67 %
03.05.2019 21:40 9,1 C 8,3 C 8,3 C 77 % 1009,1 hPa 0,0 l/m 0 min 0 min 0 W/m 9,7 km/h (2 Bft) 97,96 %
03.05.2019 21:42 9,1 C 8,3 C 8,3 C 77 % 1009,2 hPa 0,0 l/m 0 min 0 min 0 W/m 12,9 km/h (3 Bft) 97,92 %
03.05.2019 21:44 9,1 C 8,3 C 8,3 C 77 % 1009,2 hPa 0,0 l/m 0 min 0 min 0 W/m 6,4 km/h (2 Bft) 93,75 %
03.05.2019 21:46 9,1 C 8,3 C 8,3 C 77 % 1009,2 hPa 0,0 l/m 0 min 0 min 0 W/m 9,7 km/h (2 Bft) 97,87 %
03.05.2019 21:48 9,1 C 8,3 C 8,3 C 78 % 1009,2 hPa 0,0 l/m 0 min 0 min 0 W/m 9,7 km/h (2 Bft) 97,87 %
03.05.2019 21:50 9,1 C 8,3 C 8,3 C 78 % 1009,2 hPa 0,0 l/m 0 min 0 min 0 W/m 6,4 km/h (2 Bft) 97,62 %
03.05.2019 21:52 9,1 C 8,3 C 8,3 C 78 % 1009,2 hPa 0,0 l/m 0 min 0 min 0 W/m 12,9 km/h (3 Bft) 93,88 %
03.05.2019 21:54 9,1 C 8,3 C 8,3 C 78 % 1009,2 hPa 0,0 l/m 0 min 0 min 0 W/m 12,9 km/h (3 Bft) 93,75 %
03.05.2019 21:56 9,1 C 8,3 C 8,3 C 78 % 1009,2 hPa 0,0 l/m 0 min 0 min 0 W/m 6,4 km/h (2 Bft) 95,83 %
03.05.2019 21:58 9,0 C 8,3 C 8,3 C 78 % 1009,2 hPa 0,0 l/m 0 min 0 min 0 W/m 12,9 km/h (3 Bft) 97,87 %
03.05.2019 22:00 9,0 C 8,3 C 8,3 C 78 % 1009,2 hPa 0,0 l/m 0 min 0 min 0 W/m 9,7 km/h (2 Bft) 100,00 %
03.05.2019 22:02 9,0 C 8,3 C 7,8 C 78 % 1009,2 hPa 0,0 l/m 0 min 0 min 0 W/m 6,4 km/h (2 Bft) 93,62 %
03.05.2019 22:04 9,0 C 8,3 C 7,8 C 78 % 1009,2 hPa 0,0 l/m 0 min 0 min 0 W/m 9,7 km/h (2 Bft) 97,87 %
03.05.2019 22:06 9,0 C 8,3 C 7,8 C 78 % 1009,2 hPa 0,0 l/m 0 min 0 min 0 W/m 6,4 km/h (2 Bft) 100,00 %
03.05.2019 22:08 9,0 C 8,3 C 7,8 C 78 % 1009,2 hPa 0,0 l/m 0 min 0 min 0 W/m 6,4 km/h (2 Bft) 100,00 %
03.05.2019 22:10 8,9 C 7,8 C 7,8 C 78 % 1009,2 hPa 0,0 l/m 0 min 0 min 0 W/m 16,1 km/h (3 Bft) 95,92 %
03.05.2019 22:12 8,9 C 7,8 C 7,8 C 78 % 1009,1 hPa 0,0 l/m 0 min 0 min 0 W/m 12,9 km/h (3 Bft) 95,74 %
03.05.2019 22:14 8,9 C 7,8 C 7,8 C 77 % 1009,1 hPa 0,0 l/m 0 min 0 min 0 W/m 12,9 km/h (3 Bft) 95,74 %
03.05.2019 22:16 8,9 C 7,8 C 7,8 C 78 % 1009,1 hPa 0,0 l/m 0 min 0 min 0 W/m 12,9 km/h (3 Bft) 95,74 %
03.05.2019 22:18 8,9 C 7,8 C 7,8 C 78 % 1009,2 hPa 0,0 l/m 0 min 0 min 0 W/m 12,9 km/h (3 Bft) 97,87 %
03.05.2019 22:20 8,8 C 7,8 C 7,8 C 78 % 1009,2 hPa 0,0 l/m 0 min 0 min 0 W/m 16,1 km/h (3 Bft) 97,62 %
03.05.2019 22:22 8,8 C 7,8 C 7,8 C 78 % 1009,1 hPa 0,0 l/m 0 min 0 min 0 W/m 12,9 km/h (3 Bft) 97,96 %
03.05.2019 22:24 8,8 C 7,8 C 7,8 C 78 % 1009,1 hPa 0,0 l/m 0 min 0 min 0 W/m 9,7 km/h (2 Bft) 97,96 %
03.05.2019 22:26 8,8 C 7,8 C 7,8 C 78 % 1009,1 hPa 0,0 l/m 0 min 0 min 0 W/m 12,9 km/h (3 Bft) 95,74 %
03.05.2019 22:28 8,8 C 7,8 C 7,8 C 78 % 1009,0 hPa 0,0 l/m 0 min 0 min 0 W/m 16,1 km/h (3 Bft) 93,62 %
03.05.2019 22:30 8,7 C 7,8 C 7,8 C 78 % 1009,0 hPa 0,0 l/m 0 min 0 min 0 W/m 12,9 km/h (3 Bft) 97,87 %
03.05.2019 22:32 8,7 C 7,8 C 7,8 C 78 % 1008,9 hPa 0,0 l/m 0 min 0 min 0 W/m 12,9 km/h (3 Bft) 97,67 %
03.05.2019 22:34 8,7 C 7,8 C 7,8 C 78 % 1009,0 hPa 0,0 l/m 0 min 0 min 0 W/m 9,7 km/h (2 Bft) 95,92 %
03.05.2019 22:36 8,7 C 7,8 C 7,8 C 78 % 1009,0 hPa 0,0 l/m 0 min 0 min 0 W/m 6,4 km/h (2 Bft) 95,83 %
03.05.2019 22:38 8,7 C 7,8 C 7,8 C 78 % 1009,0 hPa 0,0 l/m 0 min 0 min 0 W/m 12,9 km/h (3 Bft) 95,74 %
03.05.2019 22:40 8,7 C 7,8 C 7,8 C 79 % 1009,0 hPa 0,0 l/m 0 min 0 min 0 W/m 9,7 km/h (2 Bft) 95,74 %
03.05.2019 22:42 8,7 C 7,8 C 7,8 C 79 % 1008,9 hPa 0,0 l/m 0 min 0 min 0 W/m 9,7 km/h (2 Bft) 93,62 %
03.05.2019 22:44 8,7 C 7,8 C 7,8 C 79 % 1008,9 hPa 0,0 l/m 0 min 0 min 0 W/m 9,7 km/h (2 Bft) 97,56 %
03.05.2019 22:46 8,7 C 7,8 C 7,8 C 79 % 1008,9 hPa 0,0 l/m 0 min 0 min 0 W/m 9,7 km/h (2 Bft) 91,84 %
03.05.2019 22:48 8,7 C 7,8 C 7,8 C 79 % 1008,9 hPa 0,0 l/m 0 min 0 min 0 W/m 6,4 km/h (2 Bft) 94,00 %
03.05.2019 22:50 8,7 C 7,8 C 7,8 C 79 % 1008,9 hPa 0,0 l/m 0 min 0 min 0 W/m 9,7 km/h (2 Bft) 95,74 %
03.05.2019 22:52 8,7 C 7,8 C 7,8 C 79 % 1008,9 hPa 0,0 l/m 0 min 0 min 0 W/m 9,7 km/h (2 Bft) 93,62 %
03.05.2019 22:54 8,7 C 7,8 C 7,8 C 80 % 1008,9 hPa 0,0 l/m 0 min 0 min 0 W/m 9,7 km/h (2 Bft) 100,00 %
03.05.2019 22:56 8,7 C 7,8 C 7,8 C 80 % 1008,9 hPa 0,0 l/m 0 min 0 min 0 W/m 9,7 km/h (2 Bft) 97,96 %
03.05.2019 22:58 8,6 C 7,8 C 7,8 C 80 % 1008,8 hPa 0,0 l/m 0 min 0 min 0 W/m 12,9 km/h (3 Bft) 97,96 %
03.05.2019 23:00 8,6 C 7,8 C 7,8 C 80 % 1008,8 hPa 0,0 l/m 0 min 0 min 0 W/m 12,9 km/h (3 Bft) 97,87 %
03.05.2019 23:02 8,6 C 7,8 C 7,8 C 80 % 1008,8 hPa 0,0 l/m 0 min 0 min 0 W/m 12,9 km/h (3 Bft) 97,87 %
03.05.2019 23:04 8,6 C 7,8 C 7,8 C 80 % 1008,9 hPa 0,0 l/m 0 min 2 min 0 W/m 9,7 km/h (2 Bft) 97,87 %
03.05.2019 23:06 8,6 C 7,8 C 7,8 C 80 % 1008,9 hPa 0,0 l/m 0 min 2 min 0 W/m 12,9 km/h (3 Bft) 97,87 %
03.05.2019 23:08 8,6 C 7,2 C 7,2 C 80 % 1008,9 hPa 0,0 l/m 0 min 2 min 0 W/m 9,7 km/h (2 Bft) 97,67 %
03.05.2019 23:10 8,6 C 7,2 C 7,2 C 80 % 1008,8 hPa 0,0 l/m 0 min 2 min 0 W/m 6,4 km/h (2 Bft) 97,92 %
03.05.2019 23:12 8,6 C 7,2 C 7,2 C 80 % 1008,8 hPa 0,0 l/m 0 min 2 min 0 W/m 9,7 km/h (2 Bft) 97,96 %
03.05.2019 23:14 8,6 C 7,2 C 6,7 C 81 % 1008,8 hPa 0,0 l/m 0 min 2 min 0 W/m 9,7 km/h (2 Bft) 97,87 %
03.05.2019 23:16 8,6 C 6,7 C 6,7 C 81 % 1008,8 hPa 0,0 l/m 0 min 2 min 0 W/m 9,7 km/h (2 Bft) 95,74 %
03.05.2019 23:18 8,5 C 6,7 C 6,7 C 82 % 1008,7 hPa 0,0 l/m 0 min 0 min 0 W/m 22,5 km/h (4 Bft) 97,87 %
03.05.2019 23:20 8,5 C 6,7 C 6,7 C 82 % 1008,8 hPa 0,0 l/m 0 min 2 min 0 W/m 9,7 km/h (2 Bft) 97,87 %
03.05.2019 23:22 8,5 C 6,7 C 6,7 C 82 % 1008,8 hPa 0,0 l/m 0 min 2 min 0 W/m 9,7 km/h (2 Bft) 97,62 %
03.05.2019 23:24 8,5 C 6,7 C 6,1 C 83 % 1008,8 hPa 0,0 l/m 0 min 2 min 0 W/m 6,4 km/h (2 Bft) 97,96 %
03.05.2019 23:26 8,5 C 6,7 C 6,1 C 83 % 1008,8 hPa 0,0 l/m 0 min 2 min 0 W/m 6,4 km/h (2 Bft) 97,96 %
03.05.2019 23:28 8,4 C 6,1 C 6,1 C 84 % 1008,8 hPa 0,0 l/m 0 min 2 min 0 W/m 9,7 km/h (2 Bft) 97,83 %
03.05.2019 23:30 8,4 C 6,1 C 6,1 C 84 % 1008,8 hPa 0,0 l/m 0 min 2 min 0 W/m 9,7 km/h (2 Bft) 97,92 %
03.05.2019 23:32 8,4 C 6,1 C 6,1 C 84 % 1008,7 hPa 0,0 l/m 0 min 2 min 0 W/m 6,4 km/h (2 Bft) 93,62 %
03.05.2019 23:34 8,3 C 6,1 C 6,1 C 84 % 1008,6 hPa 0,0 l/m 0 min 2 min 0 W/m 6,4 km/h (2 Bft) 97,83 %
03.05.2019 23:36 8,3 C 6,1 C 6,1 C 85 % 1008,7 hPa 0,0 l/m 0 min 2 min 0 W/m 9,7 km/h (2 Bft) 97,87 %
03.05.2019 23:38 8,3 C 6,1 C 6,1 C 85 % 1008,6 hPa 0,0 l/m 0 min 2 min 0 W/m 6,4 km/h (2 Bft) 97,87 %
03.05.2019 23:40 8,2 C 6,1 C 5,6 C 85 % 1008,6 hPa 0,0 l/m 0 min 2 min 0 W/m 6,4 km/h (2 Bft) 97,62 %
03.05.2019 23:42 8,2 C 6,1 C 5,6 C 85 % 1008,6 hPa 0,0 l/m 0 min 2 min 0 W/m 6,4 km/h (2 Bft) 95,74 %
03.05.2019 23:44 8,2 C 5,6 C 5,6 C 85 % 1008,6 hPa 0,2 l/m 0 min 2 min 0 W/m 6,4 km/h (2 Bft) 100,00 %
03.05.2019 23:46 8,1 C 5,6 C 5,6 C 85 % 1008,6 hPa 0,0 l/m 0 min 2 min 0 W/m 9,7 km/h (2 Bft) 97,96 %
03.05.2019 23:48 8,1 C 5,6 C 5,6 C 85 % 1008,6 hPa 0,0 l/m 0 min 2 min 0 W/m 6,4 km/h (2 Bft) 95,74 %
03.05.2019 23:50 8,1 C 5,6 C 5,6 C 85 % 1008,6 hPa 0,0 l/m 0 min 2 min 0 W/m 9,7 km/h (2 Bft) 97,87 %
03.05.2019 23:52 8,0 C 5,6 C 5,6 C 85 % 1008,5 hPa 0,0 l/m 0 min 2 min 0 W/m 6,4 km/h (2 Bft) 97,87 %
03.05.2019 23:54 7,9 C 5,6 C 5,6 C 86 % 1008,5 hPa 0,0 l/m 0 min 2 min 0 W/m 6,4 km/h (2 Bft) 100,00 %
03.05.2019 23:56 7,9 C 5,6 C 5,6 C 86 % 1008,6 hPa 0,0 l/m 0 min 2 min 0 W/m 3,2 km/h (1 Bft) 100,00 %
03.05.2019 23:58 7,9 C 5,6 C 5,6 C 86 % 1008,6 hPa 0,0 l/m 0 min 2 min 0 W/m 6,4 km/h (2 Bft) 100,00 %
_ Min-Zeit 06:07 23:44 05:56 14:50 00:02 - - - - 00:04 05:14
Minimum _ 6,9 C 5,6 C 5,6 C 49 % 1008,5 hPa - - - - 0,0 km/h (0 Bft) 71,43 %
_ Max-Zeit 14:22 13:38 13:38 06:14 09:06 23:44 18:07 02:48 13:46 12:24 01:20
Maximum _ 15,5 C 22,8 C 24,4 C 96 % 1011,4 hPa 0,2 l/m 3 min 2 min 1110 W/m 25,7 km/h
W (4 Bft)
100,00 %
Durchschnitt _ 10,1 C 10,6 C 10,5 C 78 % 1009,9 hPa #0,2 l/m #4:05 h #1:22 h 277 W/m 10,8 km/h (2 Bft) 97,49 %
© 2019 W. Hausmann